M I D A S
Marine Information and Data Acquisition System
Tripno 1872 of the Zeeleeuw from 2010-04-30 10:37:57 to 2010-04-30 13:23:04
Back to CruiseResearch ActivitiesStationsMapUnderway DataData graphs

EquipmentUnitsComment
TimeDGPSUTC
LatitudeDGPSDM.mWGS84
LongitudeDGPSDM.mWGS84
TemperatureSBE03/SBE38deg celciusITS90
ConductivitySBE21S/mITS90
SalinitySBE21 Practical Salinity Units
ChlorophylAChelsea fluorimeterg/lCalibrated in Aceton
Missing or incorrect values are displayed as -999
Sea surface data collected by the RV Zeeleeuw from 2010-04-30 10:41:07 to 2010-04-30 13:44:27
                                                                                    Next 1000 lines
Time Latitude Longitude Temperature Conductivity Salinity ChlorophylA
2010-04-30 10:41:16 51°13.662 2°55.959 18.2993 1.694014 13.011644 -0.687152
2010-04-30 10:41:21 51°13.662 2°55.957 18.3199 1.694014 13.011644 -0.687152
2010-04-30 10:41:26 51°13.662 2°55.955 18.3749 1.694119 13.012261 -0.617504
2010-04-30 10:41:31 51°13.664 2°55.952 18.38 1.694119 13.01174 -0.652328
2010-04-30 10:41:36 51°13.665 2°55.948 18.3769 1.694119 13.011479 -0.652328
2010-04-30 10:41:41 51°13.666 2°55.945 18.3532 1.694014 13.010342 -0.687152
2010-04-30 10:41:47 51°13.668 2°55.94 18.3473 1.694224 13.011835 -0.617504
2010-04-30 10:41:53 51°13.67 2°55.934 18.3831 1.694119 13.010698 -0.652328
2010-04-30 10:41:58 51°13.671 2°55.929 18.4049 1.694119 13.010698 -0.652328
2010-04-30 10:42:04 51°13.673 2°55.922 18.3869 1.694224 13.011053 -0.652328
2010-04-30 10:42:09 51°13.675 2°55.916 18.3827 1.694329 13.011409 -0.652328
2010-04-30 10:42:14 51°13.677 2°55.91 18.3936 1.694434 13.012025 -0.617504
2010-04-30 10:42:19 51°13.679 2°55.903 18.3929 1.694434 13.011765 -0.652328
2010-04-30 10:42:24 51°13.681 2°55.896 18.3582 1.694224 13.009491 -0.652328
2010-04-30 10:42:29 51°13.683 2°55.888 18.4088 1.694224 13.009491 -0.652328
2010-04-30 10:42:34 51°13.684 2°55.88 18.4081 1.694539 13.01186 -0.652328
2010-04-30 10:42:39 51°13.686 2°55.872 18.4308 1.694539 13.0116 -0.617504
2010-04-30 10:42:44 51°13.687 2°55.863 18.4247 1.694539 13.011339 -0.617504
2010-04-30 10:42:49 51°13.689 2°55.855 18.4141 1.694644 13.011955 -0.652328
2010-04-30 10:42:54 51°13.69 2°55.846 18.4227 1.694644 13.011434 -0.652328
2010-04-30 10:42:59 51°13.692 2°55.837 18.4359 1.694644 13.011434 -0.652328
2010-04-30 10:43:04 51°13.693 2°55.829 18.4428 1.694644 13.010914 -0.652328
2010-04-30 10:43:09 51°13.694 2°55.82 18.4439 1.694749 13.01153 -0.652328
2010-04-30 10:43:14 51°13.695 2°55.812 18.4311 1.694749 13.011269 -0.687152
2010-04-30 10:43:19 51°13.697 2°55.803 18.4452 1.694854 13.011625 -0.652328
2010-04-30 10:43:24 51°13.698 2°55.795 17.3154 1.694854 13.011625 -0.652328
2010-04-30 10:43:29 51°13.699 2°55.788 14.4558 1.694854 13.011365 -0.652328
2010-04-30 10:43:34 51°13.7 2°55.78 13.9109 1.706195 13.119965 -0.304087
2010-04-30 10:43:39 51°13.701 2°55.773 13.5352 3.311081 27.103936 -0.199615
2010-04-30 10:43:44 51°13.702 2°55.767 13.3242 3.325519 27.181267 0.845107
2010-04-30 10:43:49 51°13.702 2°55.763 13.1569 3.165526 24.550171 11.187851
2010-04-30 10:43:54 51°13.703 2°55.76 13.0818 3.075428 22.974377 10.561018
2010-04-30 10:43:59 51°13.703 2°55.759 12.9766 3.075428 22.974377 10.561018
2010-04-30 10:44:04 51°13.703 2°55.759 12.9446 3.420134 25.598413 10.944082
2010-04-30 10:44:09 51°13.704 2°55.759 12.9311 3.358376 25.738024 11.745035
2010-04-30 10:44:14 51°13.704 2°55.76 12.9088 3.345527 26.198992 12.267396
2010-04-30 10:44:19 51°13.705 2°55.761 12.8697 3.296314 26.231785 12.929053
2010-04-30 10:44:24 51°13.705 2°55.762 12.8762 3.25606 26.180386 13.695182
2010-04-30 10:44:29 51°13.706 2°55.762 12.8518 3.25606 26.180386 13.695182
2010-04-30 10:44:34 51°13.706 2°55.762 12.871 3.179769 25.746432 14.252367
2010-04-30 10:44:39 51°13.705 2°55.761 12.8793 3.133409 25.479884 14.600608
2010-04-30 10:44:44 51°13.705 2°55.759 12.8562 3.088421 25.196082 14.70508
2010-04-30 10:44:49 51°13.704 2°55.756 12.8635 3.064402 25.045044 14.844376
2010-04-30 10:44:54 51°13.703 2°55.753 12.8632 3.064402 25.045044 14.844376
2010-04-30 10:44:59 51°13.701 2°55.751 12.8897 3.050285 24.982444 14.914024
2010-04-30 10:45:04 51°13.699 2°55.748 12.8781 3.007305 24.636883 14.948848
2010-04-30 10:45:09 51°13.698 2°55.746 12.8753 3.017734 24.7578 14.914024
2010-04-30 10:45:14 51°13.697 2°55.743 12.8515 2.998563 24.60441 14.8792
2010-04-30 10:45:19 51°13.696 2°55.742 12.8047 2.986343 24.503353 14.774728
2010-04-30 10:45:24 51°13.696 2°55.742 12.7874 2.967278 24.347802 14.844376
2010-04-30 10:45:29 51°13.697 2°55.742 12.7604 2.967278 24.347802 14.844376
2010-04-30 10:45:34 51°13.698 2°55.742 12.7457 2.952215 24.21456 14.809552
2010-04-30 10:45:39 51°13.7 2°55.742 12.7465 2.948634 24.183666 14.8792
2010-04-30 10:45:44 51°13.702 2°55.742 12.7339 2.939154 24.100449 14.809552
2010-04-30 10:45:49 51°13.706 2°55.741 12.7422 2.937469 24.08866 14.809552
2010-04-30 10:45:54 51°13.71 2°55.74 12.7552 2.948318 24.202528 14.774728
2010-04-30 10:45:59 51°13.714 2°55.737 12.7336 2.948318 24.202528 14.774728
2010-04-30 10:46:04 51°13.719 2°55.734 12.7501 2.962749 24.352524 14.70508
2010-04-30 10:46:09 51°13.725 2°55.728 12.7678 2.938839 24.154256 14.635432
2010-04-30 10:46:14 51°13.731 2°55.723 12.7983 2.916721 23.96136 14.53096
2010-04-30 10:46:19 51°13.738 2°55.717 12.8011 2.992349 24.664257 14.565784
2010-04-30 10:46:24 51°13.746 2°55.71 12.8279 2.999302 24.738098 14.53096
2010-04-30 10:46:29 51°13.754 2°55.702 12.846 2.999302 24.738098 14.53096
2010-04-30 10:46:34 51°13.763 2°55.695 12.8552 3.002041 24.767072 14.461312
2010-04-30 10:46:39 51°13.773 2°55.687 12.8701 2.994772 24.703987 14.426488
2010-04-30 10:46:44 51°13.783 2°55.679 12.8927 2.981184 24.579908 14.356839
2010-04-30 10:46:49 51°13.794 2°55.671 12.9351 2.966226 24.438465 14.252367
2010-04-30 10:46:54 51°13.805 2°55.662 12.9578 2.966226 24.438465 14.252367
2010-04-30 10:46:59 51°13.816 2°55.652 12.9964 2.946107 24.246878 14.252367
2010-04-30 10:47:04 51°13.827 2°55.643 12.9981 2.943369 24.214104 14.147895
2010-04-30 10:47:09 51°13.839 2°55.633 13.0085 2.921355 24.001348 13.904127
2010-04-30 10:47:14 51°13.851 2°55.623 13.0002 2.918617 23.965285 13.486238
2010-04-30 10:47:19 51°13.863 2°55.614 13.0193 2.886704 23.666618 12.929053
2010-04-30 10:47:24 51°13.875 2°55.606 13.0303 2.86027 23.413234 12.30222
2010-04-30 10:47:29 51°13.888 2°55.597 13.038 2.86027 23.413234 12.30222
2010-04-30 10:47:34 51°13.901 2°55.588 13.0735 2.827729 23.105538 11.745035
2010-04-30 10:47:39 51°13.913 2°55.579 13.0469 2.79519 22.795444 11.536091
2010-04-30 10:47:44 51°13.926 2°55.571 13.0374 2.784239 22.683799 11.536091
2010-04-30 10:47:49 51°13.939 2°55.562 12.9578 2.774235 22.585881 11.640563
2010-04-30 10:47:54 51°13.952 2°55.554 12.9372 2.766022 22.508219 11.640563
2010-04-30 10:47:59 51°13.965 2°55.544 12.8675 2.766022 22.508219 11.640563
2010-04-30 10:48:04 51°13.977 2°55.535 12.8393 2.75423 22.394038 11.431619
2010-04-30 10:48:09 51°13.99 2°55.526 12.8346 2.734225 22.203945 11.187851
2010-04-30 10:48:14 51°14.003 2°55.517 12.7896 2.729487 22.152639 10.874434
2010-04-30 10:48:19 51°14.016 2°55.508 12.7616 2.721274 22.078923 10.804786
2010-04-30 10:48:24 51°14.029 2°55.499 12.756 2.721274 22.078923 10.804786
2010-04-30 10:48:29 51°14.042 2°55.49 12.7274 2.741279 22.268755 10.978906
2010-04-30 10:48:34 51°14.054 2°55.48 12.7494 2.762864 22.47949 11.257499
2010-04-30 10:48:39 51°14.067 2°55.471 12.7629 2.815934 22.984021 11.501267
2010-04-30 10:48:44 51°14.08 2°55.46 12.7794 2.859006 23.393725 11.745035
2010-04-30 10:48:49 51°14.092 2°55.45 12.7699 2.8787 23.601587 11.849508
2010-04-30 10:48:54 51°14.105 2°55.439 12.7871 2.921777 24.009582 11.884332
2010-04-30 10:48:59 51°14.118 2°55.429 12.8265 2.921777 24.009582 11.884332
2010-04-30 10:49:04 51°14.131 2°55.418 12.8486 2.945791 24.245004 11.919156
2010-04-30 10:49:09 51°14.144 2°55.408 12.8238 2.960433 24.391849 11.77986
2010-04-30 10:49:14 51°14.157 2°55.397 12.8337 2.96886 24.478434 11.710211
2010-04-30 10:49:19 51°14.17 2°55.386 12.8217 2.971493 24.500363 11.536091
2010-04-30 10:49:24 51°14.184 2°55.375 12.8011 2.966331 24.44944 11.396795
2010-04-30 10:49:29 51°14.197 2°55.364 12.7514 2.966331 24.44944 11.396795
2010-04-30 10:49:34 51°14.21 2°55.351 12.7389 2.958642 24.376086 11.187851
2010-04-30 10:49:39 51°14.224 2°55.34 12.7088 2.946424 24.254214 10.978906
2010-04-30 10:49:43 51°14.234 2°55.33 12.6833 2.933363 24.126363 10.874434
2010-04-30 10:49:48 51°14.248 2°55.318 12.6757 2.924936 24.04459 10.83961
2010-04-30 10:49:53 51°14.262 2°55.306 12.6621 2.924515 24.039298 10.874434
2010-04-30 10:49:58 51°14.274 2°55.292 12.6757 2.924515 24.039298 10.874434
2010-04-30 10:50:03 51°14.288 2°55.279 12.6688 2.933363 24.121919 11.01373
2010-04-30 10:50:07 51°14.298 2°55.268 12.6485 2.953165 24.316381 11.153027
2010-04-30 10:50:12 51°14.312 2°55.254 12.6317 2.974021 24.522842 11.257499
2010-04-30 10:50:17 51°14.325 2°55.241 12.6176 2.989506 24.680361 11.257499
2010-04-30 10:50:22 51°14.339 2°55.227 12.6017 2.989506 24.680361 11.257499
2010-04-30 10:50:27 51°14.353 2°55.214 12.55 3.014366 24.924201 11.118203
2010-04-30 10:50:31 51°14.364 2°55.203 12.5201 3.029642 25.076439 11.01373
2010-04-30 10:50:37 51°14.381 2°55.187 12.5354 3.039018 25.169832 10.944082
2010-04-30 10:50:42 51°14.396 2°55.174 12.497 3.047867 25.255387 10.874434
2010-04-30 10:50:47 51°14.41 2°55.16 12.4894 3.058613 25.360445 10.978906
2010-04-30 10:50:51 51°14.422 2°55.149 12.4761 3.067884 25.458914 11.187851
2010-04-30 10:50:56 51°14.436 2°55.134 12.449 3.067884 25.458914 11.187851
2010-04-30 10:51:01 51°14.45 2°55.118 12.432 3.089271 25.668107 11.466443
2010-04-30 10:51:06 51°14.465 2°55.103 12.4318 3.109922 25.883745 11.77986
2010-04-30 10:51:11 51°14.48 2°55.087 12.4068 3.131627 26.098396 11.884332
2010-04-30 10:51:15 51°14.492 2°55.075 12.4045 3.152384 26.306388 11.988804
2010-04-30 10:51:21 51°14.509 2°55.055 12.3907 3.163554 26.420849 11.919156
2010-04-30 10:51:26 51°14.523 2°55.038 12.397 3.163554 26.420849 11.919156
2010-04-30 10:51:31 51°14.537 2°55.019 12.3815 3.165872 26.455911 11.988804
2010-04-30 10:51:35 51°14.547 2°55.002 12.3849 3.170298 26.513228 12.058452
2010-04-30 10:51:41 51°14.561 2°54.976 12.3891 3.183891 26.654885 12.058452
2010-04-30 10:51:46 51°14.573 2°54.954 12.4198 3.18758 26.698966 12.058452
2010-04-30 10:51:51 51°14.586 2°54.934 12.4367 3.194851 26.77683 12.058452
2010-04-30 10:51:55 51°14.598 2°54.92 12.4555 3.194851 26.77683 12.058452
2010-04-30 10:52:01 51°14.615 2°54.899 12.4215 3.196115 26.801878 11.988804
2010-04-30 10:52:06 51°14.631 2°54.884 12.3914 3.20149 26.858386 12.023628
2010-04-30 10:52:11 51°14.646 2°54.867 12.3421 3.209182 26.937565 12.093276
2010-04-30 10:52:15 51°14.658 2°54.854 12.316 3.208129 26.929463 12.1281
2010-04-30 10:52:20 51°14.673 2°54.837 12.2517 3.208129 26.929463 12.1281
2010-04-30 10:52:26 51°14.692 2°54.817 12.2464 3.212976 26.970535 12.1281
2010-04-30 10:52:31 51°14.708 2°54.802 12.1666 3.206969 26.905863 12.232572
2010-04-30 10:52:36 51°14.724 2°54.787 12.1519 3.207812 26.905311 12.615637
2010-04-30 10:52:41 51°14.74 2°54.773 12.1112 3.223092 27.046486 12.789757
2010-04-30 10:52:46 51°14.757 2°54.76 12.1148 3.250071 27.312256 12.650461
2010-04-30 10:52:51 51°14.772 2°54.745 12.0398 3.290224 27.707098 12.337044
2010-04-30 10:52:55 51°14.786 2°54.735 12.0369 3.290224 27.707098 12.337044
2010-04-30 10:53:01 51°14.805 2°54.716 12.0056 3.319209 28.014036 11.919156
2010-04-30 10:53:06 51°14.821 2°54.702 12.0398 3.350091 28.328119 11.501267
2010-04-30 10:53:11 51°14.837 2°54.687 11.9857 3.375389 28.596719 11.083378
2010-04-30 10:53:15 51°14.85 2°54.676 11.9624 3.390673 28.776833 10.630666
2010-04-30 10:53:21 51°14.87 2°54.659 11.9622 3.417554 29.056462 10.212777
2010-04-30 10:53:26 51°14.886 2°54.644 11.9458 3.417554 29.056462 10.212777
2010-04-30 10:53:31 51°14.903 2°54.63 11.9594 3.435264 29.247272 9.899361
2010-04-30 10:53:35 51°14.916 2°54.618 11.9426 3.447282 29.393965 9.72524
2010-04-30 10:53:41 51°14.935 2°54.6 11.9564 3.456348 29.49763 9.516296
2010-04-30 10:53:46 51°14.951 2°54.585 11.9507 3.4593 29.541682 9.237704
2010-04-30 10:53:51 51°14.967 2°54.57 11.9547 3.4593 29.541682 9.237704
2010-04-30 10:53:55 51°14.979 2°54.558 11.9371 3.468578 29.649475 9.20288
2010-04-30 10:54:01 51°14.998 2°54.541 11.9293 3.471424 29.692059 9.307352
2010-04-30 10:54:06 51°15.014 2°54.527 11.9476 3.477855 29.768095 9.446648
2010-04-30 10:54:11 51°15.029 2°54.51 11.9437 3.479331 29.792136 9.377
2010-04-30 10:54:15 51°15.042 2°54.499 11.9437 3.482072 29.823193 9.272528
2010-04-30 10:54:21 51°15.06 2°54.479 11.9406 3.481862 29.82684 9.028759
2010-04-30 10:54:26 51°15.076 2°54.464 11.9393 3.481862 29.82684 9.028759
2010-04-30 10:54:31 51°15.091 2°54.448 11.9435 3.47775 29.789656 8.750167
2010-04-30 10:54:35 51°15.104 2°54.435 11.9355 3.48766 29.888239 8.227806
2010-04-30 10:54:41 51°15.122 2°54.416 11.9417 3.491561 29.929108 7.879566
2010-04-30 10:54:46 51°15.137 2°54.399 11.932 3.493669 29.949791 7.461677
2010-04-30 10:54:51 51°15.152 2°54.384 11.9391 3.49504 29.962195 7.14826
2010-04-30 10:54:55 51°15.164 2°54.37 11.9294 3.49504 29.962195 7.14826
2010-04-30 10:55:01 51°15.183 2°54.351 11.9248 3.496516 29.978128 6.834844
2010-04-30 10:55:06 51°15.198 2°54.334 11.9085 3.499046 30.004727 6.6259
2010-04-30 10:55:11 51°15.213 2°54.318 11.9196 3.504845 30.059269 6.347307
2010-04-30 10:55:15 51°15.225 2°54.305 11.9167 3.504001 30.054408 6.068715
2010-04-30 10:55:21 51°15.243 2°54.283 11.9094 3.510432 30.116257 5.85977
2010-04-30 10:55:26 51°15.258 2°54.266 11.9089 3.510432 30.116257 5.85977
2010-04-30 10:55:31 51°15.272 2°54.248 11.8932 3.512646 30.139876 5.581178
2010-04-30 10:55:36 51°15.287 2°54.231 11.8856 3.517707 30.191884 5.372234
2010-04-30 10:55:41 51°15.301 2°54.212 11.8793 3.519183 30.209764 5.058817
2010-04-30 10:55:46 51°15.316 2°54.194 11.8598 3.518972 30.214761 4.849873
2010-04-30 10:55:51 51°15.33 2°54.175 11.8419 3.518972 30.214761 4.849873
2010-04-30 10:55:56 51°15.345 2°54.157 11.8365 3.521714 30.243434 4.745401
2010-04-30 10:56:01 51°15.359 2°54.138 11.8406 3.528039 30.303733 4.780225
2010-04-30 10:56:06 51°15.373 2°54.119 11.8313 3.527618 30.304186 4.954345
2010-04-30 10:56:11 51°15.387 2°54.1 11.8124 3.530464 30.339009 5.33741
2010-04-30 10:56:15 51°15.399 2°54.085 11.7903 3.532046 30.3605 5.720474
2010-04-30 10:56:21 51°15.416 2°54.063 11.774 3.532362 30.373773 6.103539
2010-04-30 10:56:26 51°15.43 2°54.044 11.7587 3.532362 30.373773 6.103539
2010-04-30 10:56:31 51°15.445 2°54.026 11.7665 3.536053 30.419272 6.521427
2010-04-30 10:56:35 51°15.456 2°54.01 11.7571 3.536475 30.43487 6.904492
2010-04-30 10:56:41 51°15.473 2°53.989 11.7512 3.536369 30.442224 7.14826
2010-04-30 10:56:46 51°15.488 2°53.97 11.744 3.532152 30.410927 7.426853
2010-04-30 10:56:51 51°15.502 2°53.952 11.7397 3.536264 30.461176 7.531325
2010-04-30 10:56:55 51°15.514 2°53.937 11.7356 3.536264 30.461176 7.531325
2010-04-30 10:57:01 51°15.531 2°53.915 11.7386 3.538162 30.496095 7.600973
2010-04-30 10:57:06 51°15.545 2°53.896 11.7339 3.540376 30.527619 7.670621
2010-04-30 10:57:11 51°15.56 2°53.878 11.7418 3.539322 30.524636 7.600973
2010-04-30 10:57:16 51°15.574 2°53.859 11.7494 3.538057 30.518341 7.531325
2010-04-30 10:57:21 51°15.588 2°53.841 11.7554 3.538057 30.518341 7.531325
2010-04-30 10:57:26 51°15.603 2°53.822 11.7487 3.539744 30.543553 7.426853
2010-04-30 10:57:31 51°15.617 2°53.803 11.7496 3.539006 30.543603 7.322381
2010-04-30 10:57:36 51°15.631 2°53.784 11.7587 3.537847 30.538318 7.392029
2010-04-30 10:57:41 51°15.645 2°53.764 11.7686 3.537636 30.538887 7.392029
2010-04-30 10:57:46 51°15.659 2°53.745 11.7702 3.536687 30.532383 7.392029
2010-04-30 10:57:51 51°15.672 2°53.724 11.7765 3.537741 30.541192 7.566149
2010-04-30 10:57:56 51°15.686 2°53.705 11.7775 3.537741 30.541192 7.566149
2010-04-30 10:58:01 51°15.699 2°53.684 11.7801 3.534262 30.504617 7.600973
2010-04-30 10:58:05 51°15.71 2°53.668 11.778 3.534578 30.507 7.705445
2010-04-30 10:58:11 51°15.726 2°53.643 11.7819 3.533629 30.494677 7.705445
2010-04-30 10:58:15 51°15.737 2°53.627 11.7897 3.535211 30.508534 7.705445
2010-04-30 10:58:21 51°15.753 2°53.602 11.7856 3.527092 30.425616 7.600973
2010-04-30 10:58:26 51°15.767 2°53.581 11.7847 3.527092 30.425616 7.600973
2010-04-30 10:58:31 51°15.78 2°53.561 11.7806 3.534472 30.491123 7.566149
2010-04-30 10:58:35 51°15.791 2°53.545 11.7792 3.532048 30.465965 7.566149
2010-04-30 10:58:41 51°15.807 2°53.52 11.7758 3.532258 30.464757 7.461677
2010-04-30 10:58:46 51°15.821 2°53.5 11.7729 3.529833 30.441543 7.392029
2010-04-30 10:58:51 51°15.834 2°53.479 11.7692 3.529517 30.435291 7.217908
2010-04-30 10:58:55 51°15.844 2°53.462 11.7637 3.529517 30.435291 7.217908
2010-04-30 10:59:00 51°15.858 2°53.442 11.7639 3.53384 30.474734 6.97414
2010-04-30 10:59:06 51°15.874 2°53.417 11.7569 3.530782 30.444822 6.834844
2010-04-30 10:59:11 51°15.887 2°53.397 11.7292 3.534051 30.477398 6.591076
2010-04-30 10:59:16 51°15.901 2°53.377 11.7227 3.53015 30.443281 6.382131
2010-04-30 10:59:21 51°15.915 2°53.36 11.6999 3.53015 30.443281 6.382131
2010-04-30 10:59:26 51°15.93 2°53.34 11.6847 3.528568 30.428787 6.138363
2010-04-30 10:59:31 51°15.945 2°53.324 11.6626 3.531309 30.457609 5.929418
2010-04-30 10:59:35 51°15.956 2°53.309 11.6526 3.526354 30.413394 5.929418
2010-04-30 10:59:41 51°15.974 2°53.289 11.6414 3.533207 30.482883 6.277659
2010-04-30 10:59:46 51°15.99 2°53.274 11.6311 3.532575 30.482638 6.97414
2010-04-30 10:59:51 51°16.005 2°53.258 11.6121 3.53268 30.493344 7.740269
2010-04-30 10:59:56 51°16.021 2°53.243 11.605 3.53268 30.493344 7.740269
2010-04-30 11:00:01 51°16.036 2°53.228 11.5973 3.536792 30.543757 8.506398
2010-04-30 11:00:05 51°16.049 2°53.217 11.5986 3.536266 30.556853 9.20288
2010-04-30 11:00:11 51°16.068 2°53.2 11.6048 3.53131 30.523579 9.55112
2010-04-30 11:00:15 51°16.081 2°53.189 11.5952 3.534052 30.563515 9.794888
2010-04-30 11:00:21 51°16.1 2°53.174 11.5905 3.531627 30.552572 9.899361
2010-04-30 11:00:26 51°16.116 2°53.16 11.5892 3.531627 30.552572 9.899361
2010-04-30 11:00:31 51°16.133 2°53.148 11.6017 3.531627 30.565568 9.829713
2010-04-30 11:00:35 51°16.146 2°53.136 11.5896 3.532365 30.583067 9.829713
2010-04-30 11:00:41 51°16.166 2°53.122 11.5927 3.529203 30.563725 9.829713
2010-04-30 11:00:46 51°16.182 2°53.108 11.5865 3.533525 30.61115 9.864537
2010-04-30 11:00:51 51°16.198 2°53.096 11.5971 3.533525 30.61115 9.864537
2010-04-30 11:00:55 51°16.211 2°53.086 11.5959 3.532471 30.603617 9.864537
2010-04-30 11:01:01 51°16.231 2°53.07 11.5968 3.493463 30.234564 10.003833
2010-04-30 11:01:06 51°16.247 2°53.057 11.6096 3.531522 30.602311 10.038657
2010-04-30 11:01:11 51°16.264 2°53.045 11.6136 3.533842 30.625277 10.177953
2010-04-30 11:01:15 51°16.277 2°53.036 11.6111 3.52372 30.531175 10.247601
2010-04-30 11:01:21 51°16.297 2°53.022 11.6147 3.52372 30.531175 10.247601
2010-04-30 11:01:26 51°16.314 2°53.01 11.6177 3.530468 30.597383 10.177953
2010-04-30 11:01:31 51°16.331 2°52.998 11.6219 3.530046 30.592674 10.003833
2010-04-30 11:01:35 51°16.344 2°52.989 11.6282 3.528676 30.578186 9.794888
2010-04-30 11:01:41 51°16.364 2°52.976 11.6315 3.530046 30.588764 9.481472
2010-04-30 11:01:46 51°16.381 2°52.964 11.6311 3.526251 30.551607 9.168055
2010-04-30 11:01:51 51°16.398 2°52.953 11.636 3.528148 30.565302 8.819815
2010-04-30 11:01:56 51°16.415 2°52.942 11.6368 3.528148 30.565302 8.819815
2010-04-30 11:02:01 51°16.431 2°52.931 11.6315 3.526145 30.543437 8.576047
2010-04-30 11:02:06 51°16.448 2°52.92 11.6244 3.517184 30.454046 8.401926
2010-04-30 11:02:11 51°16.465 2°52.909 11.6309 3.523509 30.510949 8.227806
2010-04-30 11:02:15 51°16.478 2°52.899 11.6294 3.522244 30.495543 8.018862
2010-04-30 11:02:21 51°16.498 2°52.886 11.623 3.522244 30.495543 8.018862
2010-04-30 11:02:26 51°16.515 2°52.874 11.6116 3.514653 30.420663 7.91439
2010-04-30 11:02:31 51°16.532 2°52.863 11.6095 3.519714 30.466688 7.775093
2010-04-30 11:02:36 51°16.548 2°52.851 11.6047 3.520768 30.475521 7.705445
2010-04-30 11:02:41 51°16.566 2°52.841 11.6014 3.516024 30.429296 7.600973
2010-04-30 11:02:46 51°16.582 2°52.829 11.5919 3.520979 30.480141 7.670621
2010-04-30 11:02:51 51°16.599 2°52.818 11.5902 3.520979 30.480141 7.670621
2010-04-30 11:02:55 51°16.612 2°52.808 11.5861 3.52119 30.482816 7.705445
2010-04-30 11:03:01 51°16.632 2°52.796 11.5859 3.516129 30.436786 7.705445
2010-04-30 11:03:06 51°16.649 2°52.783 11.5806 3.519608 30.472809 7.879566
2010-04-30 11:03:11 51°16.666 2°52.773 11.5851 3.515286 30.435161 7.91439
2010-04-30 11:03:16 51°16.682 2°52.76 11.5836 3.516973 30.456558 7.949214
2010-04-30 11:03:21 51°16.699 2°52.749 11.5798 3.518133 30.47095 8.018862
2010-04-30 11:03:26 51°16.715 2°52.737 11.5817 3.518133 30.47095 8.018862
2010-04-30 11:03:31 51°16.732 2°52.726 11.5783 3.51381 30.43653 7.949214
2010-04-30 11:03:35 51°16.745 2°52.716 11.579 3.516551 30.46548 7.91439
2010-04-30 11:03:41 51°16.765 2°52.702 11.5844 3.516235 30.465684 7.844741
2010-04-30 11:03:46 51°16.781 2°52.691 11.5862 3.517606 30.480813 7.775093
2010-04-30 11:03:51 51°16.798 2°52.679 11.5824 3.51982 30.504057 7.670621
2010-04-30 11:03:56 51°16.814 2°52.668 11.5857 3.51982 30.504057 7.670621
2010-04-30 11:04:01 51°16.831 2°52.656 11.584 3.509277 30.403314 7.566149
2010-04-30 11:04:05 51°16.844 2°52.646 11.5845 3.511175 30.423506 7.461677
2010-04-30 11:04:11 51°16.864 2°52.632 11.5872 3.51381 30.450152 7.252733
2010-04-30 11:04:15 51°16.877 2°52.622 11.5779 3.513178 30.444068 7.113436
2010-04-30 11:04:21 51°16.896 2°52.608 11.5806 3.517922 30.488402 6.904492
2010-04-30 11:04:26 51°16.913 2°52.596 11.5775 3.517922 30.488402 6.904492
2010-04-30 11:04:31 51°16.929 2°52.584 11.5785 3.508328 30.396134 6.80002
2010-04-30 11:04:36 51°16.946 2°52.572 11.5809 3.509699 30.409961 6.80002
2010-04-30 11:04:41 51°16.962 2°52.56 11.5826 3.517922 30.487753 6.765196
2010-04-30 11:04:46 51°16.979 2°52.548 11.5801 3.51613 30.469864 6.834844
2010-04-30 11:04:51 51°16.996 2°52.537 11.5812 3.51613 30.469864 6.834844
2010-04-30 11:04:56 51°17.012 2°52.524 11.5881 3.506747 30.381576 6.834844
2010-04-30 11:05:01 51°17.029 2°52.514 11.5815 3.507485 30.38932 6.80002
2010-04-30 11:05:06 51°17.045 2°52.502 11.5765 3.512334 30.437902 6.80002
2010-04-30 11:05:11 51°17.061 2°52.49 11.5661 3.506747 30.384166 6.765196
2010-04-30 11:05:15 51°17.074 2°52.48 11.5602 3.513389 30.449341 6.660724
2010-04-30 11:05:21 51°17.094 2°52.466 11.5508 3.514548 30.459198 6.486603
2010-04-30 11:05:26 51°17.111 2°52.454 11.5576 3.514548 30.459198 6.486603
2010-04-30 11:05:31 51°17.127 2°52.442 11.5501 3.506536 30.382139 6.416955
2010-04-30 11:05:35 51°17.14 2°52.432 11.5464 3.514337 30.455222 6.382131
2010-04-30 11:05:41 51°17.16 2°52.418 11.5432 3.507906 30.394022 6.486603
2010-04-30 11:05:46 51°17.177 2°52.406 11.5368 3.504638 30.365834 6.6259
2010-04-30 11:05:51 51°17.193 2°52.395 11.532 3.508644 30.410841 6.6259
2010-04-30 11:05:56 51°17.21 2°52.382 11.5343 3.508644 30.410841 6.6259
2010-04-30 11:06:01 51°17.226 2°52.371 11.5417 3.513283 30.461962 6.730372
2010-04-30 11:06:06 51°17.243 2°52.358 11.5425 3.502319 30.359064 6.730372
2010-04-30 11:06:11 51°17.259 2°52.346 11.5435 3.511386 30.447597 6.660724
2010-04-30 11:06:15 51°17.272 2°52.336 11.5503 3.515708 30.491151 6.521427
2010-04-30 11:06:21 51°17.292 2°52.321 11.5519 3.515708 30.491151 6.521427
2010-04-30 11:06:26 51°17.309 2°52.309 11.5543 3.514865 30.489536 6.416955
2010-04-30 11:06:31 51°17.325 2°52.297 11.5639 3.51613 30.506924 6.347307
2010-04-30 11:06:35 51°17.338 2°52.287 11.5681 3.51244 30.472693 6.242835
2010-04-30 11:06:41 51°17.358 2°52.272 11.5683 3.515498 30.502786 6.138363
2010-04-30 11:06:46 51°17.374 2°52.26 11.5666 3.515709 30.504165 5.999067
2010-04-30 11:06:51 51°17.391 2°52.247 11.5623 3.515709 30.504165 5.999067
2010-04-30 11:06:56 51°17.407 2°52.235 11.5676 3.513389 30.479228 5.894594
2010-04-30 11:07:01 51°17.424 2°52.223 11.5706 3.514443 30.486126 5.755298
2010-04-30 11:07:06 51°17.441 2°52.211 11.5689 3.510121 30.442565 5.720474
2010-04-30 11:07:11 51°17.457 2°52.198 11.5697 3.512545 30.461357 5.68565
2010-04-30 11:07:16 51°17.473 2°52.185 11.5694 3.512335 30.456079 5.616002
2010-04-30 11:07:21 51°17.489 2°52.171 11.5745 3.509277 30.426008 5.546354
2010-04-30 11:07:26 51°17.505 2°52.157 11.5708 3.509277 30.426008 5.546354
2010-04-30 11:07:31 51°17.521 2°52.142 11.5756 3.512756 30.45689 5.476706
2010-04-30 11:07:35 51°17.533 2°52.129 11.5762 3.510964 30.439643 5.407058
2010-04-30 11:07:41 51°17.552 2°52.111 11.5778 3.511596 30.443133 5.372234
2010-04-30 11:07:46 51°17.567 2°52.095 11.579 3.510437 30.431975 5.33741
2010-04-30 11:07:51 51°17.582 2°52.08 11.5794 3.507274 30.401547 5.33741
2010-04-30 11:07:55 51°17.594 2°52.066 11.579 3.507274 30.401547 5.33741
2010-04-30 11:08:01 51°17.612 2°52.047 11.5808 3.509804 30.42524 5.33741
2010-04-30 11:08:06 51°17.627 2°52.031 11.5809 3.508223 30.410675 5.232937
2010-04-30 11:08:11 51°17.642 2°52.015 11.5828 3.503795 30.364844 5.198113
2010-04-30 11:08:15 51°17.655 2°52.002 11.5818 3.507696 30.401714 5.093641
2010-04-30 11:08:21 51°17.673 2°51.983 11.585 3.507696 30.401714 5.093641
2010-04-30 11:08:26 51°17.688 2°51.967 11.595 3.506641 30.390926 4.954345
2010-04-30 11:08:31 51°17.703 2°51.951 11.5915 3.506009 30.383546 4.954345
2010-04-30 11:08:36 51°17.718 2°51.934 11.5979 3.501159 30.336263 4.919521
2010-04-30 11:08:41 51°17.733 2°51.919 11.5974 3.504744 30.369437 4.919521
2010-04-30 11:08:46 51°17.748 2°51.902 11.5974 3.504111 30.36206 4.919521
2010-04-30 11:08:51 51°17.763 2°51.886 11.5995 3.504849 30.368509 4.884697
2010-04-30 11:08:55 51°17.775 2°51.873 11.5993 3.504849 30.368509 4.884697
2010-04-30 11:09:01 51°17.793 2°51.854 11.5998 3.503795 30.357724 4.884697
2010-04-30 11:09:05 51°17.805 2°51.841 11.6019 3.504216 30.358544 4.919521
2010-04-30 11:09:11 51°17.823 2°51.822 11.5974 3.503057 30.346748 4.849873
2010-04-30 11:09:15 51°17.835 2°51.809 11.593 3.504216 30.354015 4.780225
2010-04-30 11:09:21 51°17.853 2°51.79 11.5959 3.499577 30.306845 4.780225
2010-04-30 11:09:26 51°17.868 2°51.774 11.5969 3.499577 30.306845 4.780225
2010-04-30 11:09:31 51°17.884 2°51.759 11.5976 3.504216 30.350135 4.745401
2010-04-30 11:09:36 51°17.899 2°51.743 11.5915 3.504111 30.349122 4.710577
2010-04-30 11:09:41 51°17.913 2°51.726 11.6006 3.500421 30.312367 4.675753
2010-04-30 11:09:46 51°17.929 2°51.711 11.6022 3.500948 30.316787 4.536456
2010-04-30 11:09:51 51°17.943 2°51.694 11.6087 3.500948 30.316787 4.536456
2010-04-30 11:09:55 51°17.955 2°51.68 11.6152 3.504005 30.348108 4.501632
2010-04-30 11:10:01 51°17.973 2°51.659 11.6233 3.504743 30.355848 4.39716
2010-04-30 11:10:06 51°17.987 2°51.641 11.6278 3.503584 30.344702 4.292688
2010-04-30 11:10:11 51°18.002 2°51.624 11.6355 3.503267 30.344248 4.22304
2010-04-30 11:10:15 51°18.013 2°51.609 11.6362 3.502846 30.338901 4.153392
2010-04-30 11:10:21 51°18.03 2°51.588 11.6327 3.502846 30.338901 4.153392
2010-04-30 11:10:26 51°18.044 2°51.57 11.6243 3.502213 30.332822 4.118568
2010-04-30 11:10:31 51°18.059 2°51.552 11.6266 3.501053 30.317154 4.083744
2010-04-30 11:10:35 51°18.07 2°51.537 11.6169 3.499366 30.297718 4.153392
2010-04-30 11:10:41 51°18.087 2°51.515 11.6075 3.498945 30.287861 4.257864
2010-04-30 11:10:46 51°18.102 2°51.498 11.6004 3.497996 30.2723 4.39716
2010-04-30 11:10:51 51°18.115 2°51.479 11.5963 3.498734 30.274875 4.431984
2010-04-30 11:10:55 51°18.127 2°51.465 11.5885 3.498734 30.274875 4.431984
2010-04-30 11:11:01 51°18.144 2°51.442 11.5818 3.500842 30.293187 4.39716
2010-04-30 11:11:05 51°18.155 2°51.427 11.5754 3.502951 30.31408 4.431984
2010-04-30 11:11:11 51°18.172 2°51.406 11.5704 3.50527 30.338938 4.39716
2010-04-30 11:11:16 51°18.186 2°51.387 11.5603 3.507801 30.368415 4.362336
2010-04-30 11:11:21 51°18.2 2°51.369 11.565 3.50896 30.385381 4.292688
2010-04-30 11:11:26 51°18.214 2°51.35 11.5626 3.50896 30.385381 4.292688
2010-04-30 11:11:31 51°18.229 2°51.333 11.563 3.51128 30.411558 4.327512
2010-04-30 11:11:35 51°18.239 2°51.317 11.5505 3.512123 30.426147 4.292688
2010-04-30 11:11:41 51°18.257 2°51.296 11.5551 3.51381 30.446907 4.292688
2010-04-30 11:11:46 51°18.269 2°51.279 11.5497 3.514232 30.457454 4.327512
2010-04-30 11:11:51 51°18.282 2°51.263 11.5501 3.514232 30.457454 4.327512
2010-04-30 11:11:55 51°18.29 2°51.251 11.5502 3.514759 30.46772 4.362336
2010-04-30 11:12:01 51°18.303 2°51.233 11.5487 3.513389 30.461028 4.39716
2010-04-30 11:12:06 51°18.312 2°51.22 11.5458 3.513283 30.461313 4.431984
2010-04-30 11:12:11 51°18.321 2°51.207 11.5527 3.51244 30.455795 4.501632
2010-04-30 11:12:15 51°18.328 2°51.197 11.5547 3.51128 30.448531 4.57128
2010-04-30 11:12:21 51°18.338 2°51.183 11.5591 3.509699 30.436558 4.640929
2010-04-30 11:12:26 51°18.346 2°51.172 11.561 3.509699 30.436558 4.640929
2010-04-30 11:12:31 51°18.353 2°51.162 11.5593 3.508223 30.42365 4.675753
2010-04-30 11:12:35 51°18.359 2°51.154 11.56 3.507485 30.419144 4.780225
2010-04-30 11:12:41 51°18.367 2°51.143 11.5644 3.506642 30.411026 4.849873
2010-04-30 11:12:45 51°18.372 2°51.135 11.5653 3.505376 30.400796 4.884697
2010-04-30 11:12:51 51°18.379 2°51.125 11.5684 3.504955 30.394143 4.989169
2010-04-30 11:12:55 51°18.384 2°51.119 11.5678 3.504955 30.394143 4.989169
2010-04-30 11:13:01 51°18.391 2°51.109 11.5702 3.504111 30.385378 5.023993
2010-04-30 11:13:05 51°18.395 2°51.104 11.5692 3.503584 30.377713 5.128465
2010-04-30 11:13:11 51°18.402 2°51.095 11.5747 3.502741 30.368302 5.232937
2010-04-30 11:13:15 51°18.406 2°51.09 11.5735 3.502846 30.369317 5.407058
2010-04-30 11:13:21 51°18.412 2°51.082 11.574 3.501265 30.351512 5.546354
2010-04-30 11:13:26 51°18.416 2°51.075 11.5717 3.501265 30.351512 5.546354
2010-04-30 11:13:31 51°18.421 2°51.07 11.575 3.501897 30.356302 5.68565
2010-04-30 11:13:36 51°18.425 2°51.064 11.5763 3.501054 30.346895 5.85977
2010-04-30 11:13:41 51°18.429 2°51.059 11.5712 3.500737 30.343205 5.964243
2010-04-30 11:13:46 51°18.432 2°51.053 11.5726 3.500316 30.338502 6.138363
2010-04-30 11:13:51 51°18.436 2°51.048 11.5718 3.500316 30.338502 6.138363
2010-04-30 11:13:55 51°18.439 2°51.045 11.5747 3.500105 30.333887 6.312483
2010-04-30 11:14:01 51°18.442 2°51.039 11.5741 3.499472 30.32651 6.347307
2010-04-30 11:14:06 51°18.445 2°51.035 11.5709 3.499156 30.324115 6.451779
2010-04-30 11:14:11 51°18.448 2°51.031 11.5743 3.498629 30.318399 6.521427
2010-04-30 11:14:15 51°18.45 2°51.028 11.5508 3.497996 30.31167 6.660724
2010-04-30 11:14:21 51°18.453 2°51.024 11.5541 3.49768 30.309275 6.695548
2010-04-30 11:14:26 51°18.455 2°51.02 11.5501 3.49768 30.309275 6.695548
2010-04-30 11:14:31 51°18.457 2°51.017 11.5514 3.497258 30.305866 6.834844
2010-04-30 11:14:35 51°18.458 2°51.015 11.556 3.496626 30.299784 6.834844
2010-04-30 11:14:41 51°18.46 2°51.012 11.5578 3.495466 30.286696 6.869668
2010-04-30 11:14:46 51°18.462 2°51.01 11.5548 3.495255 30.282086 7.91439
2010-04-30 11:14:51 51°18.462 2°51.009 11.5596 3.495993 30.287244 8.367102
2010-04-30 11:14:55 51°18.463 2°51.008 11.5533 3.495993 30.287244 8.367102
2010-04-30 11:15:01 51°18.464 2°51.007 11.5643 3.493779 30.270479 8.645695
2010-04-30 11:15:06 51°18.464 2°51.006 11.5566 3.492303 30.256935 8.784991
2010-04-30 11:15:11 51°18.464 2°51.005 11.5547 3.491144 30.248366 8.993935
2010-04-30 11:15:15 51°18.465 2°51.005 11.5546 3.488403 30.222016 9.063583
2010-04-30 11:15:21 51°18.465 2°51.004 11.554 3.488403 30.222016 9.063583
2010-04-30 11:15:26 51°18.466 2°51.003 11.5491 3.487665 30.213634 9.133231
2010-04-30 11:15:31 51°18.466 2°51.002 11.5591 3.486927 30.207185 9.098407
2010-04-30 11:15:36 51°18.466 2°51.002 11.5498 3.487454 30.212252 9.133231
2010-04-30 11:15:41 51°18.466 2°51.001 11.5464 3.487137 30.208568 9.133231
2010-04-30 11:15:46 51°18.467 2°51.001 11.5489 3.486927 30.205897 9.133231
2010-04-30 11:15:51 51°18.467 2°51 11.5547 3.486927 30.205897 9.133231
2010-04-30 11:15:55 51°18.467 2°51 11.55 3.486294 30.200461 9.168055
2010-04-30 11:16:01 51°18.467 2°51 11.5508 3.485872 30.196408 9.098407
2010-04-30 11:16:06 51°18.467 2°51 11.551 3.486083 30.197791 8.959111
2010-04-30 11:16:11 51°18.467 2°50.999 11.555 3.487243 30.208293 8.784991
2010-04-30 11:16:15 51°18.467 2°50.999 11.5651 3.487454 30.211607 8.784991
2010-04-30 11:16:21 51°18.467 2°51 11.5805 3.487559 30.216487 8.715343
2010-04-30 11:16:26 51°18.467 2°51 11.5798 3.487559 30.216487 8.715343
2010-04-30 11:16:31 51°18.467 2°51 11.5775 3.487876 30.219527 8.610871
2010-04-30 11:16:35 51°18.467 2°51 11.5787 3.487875 30.218883 8.715343
2010-04-30 11:16:41 51°18.468 2°51 11.5669 3.487032 30.210775 8.610871
2010-04-30 11:16:46 51°18.468 2°51 11.5683 3.487243 30.213446 8.541223
2010-04-30 11:16:51 51°18.467 2°51.001 11.5658 3.487243 30.213446 8.541223
2010-04-30 11:16:55 51°18.468 2°51.001 11.5599 3.48893 30.227728 8.43675
2010-04-30 11:17:01 51°18.467 2°51.002 11.5596 3.489035 30.224874 8.43675
2010-04-30 11:17:06 51°18.467 2°51.003 11.5538 3.488719 30.215392 8.43675
2010-04-30 11:17:11 51°18.467 2°51.003 11.5557 3.490406 30.229025 8.471574
2010-04-30 11:17:15 51°18.467 2°51.004 11.5471 3.489351 30.21825 8.506398
2010-04-30 11:17:21 51°18.466 2°51.005 11.547 3.489351 30.21825 8.506398
2010-04-30 11:17:26 51°18.466 2°51.006 11.5539 3.490933 30.235379 8.43675
2010-04-30 11:17:31 51°18.466 2°51.006 11.5423 3.489668 30.22451 8.471574
2010-04-30 11:17:35 51°18.466 2°51.007 11.5423 3.491038 30.238326 8.401926
2010-04-30 11:17:41 51°18.465 2°51.008 11.5418 3.490089 30.232429 8.297454
2010-04-30 11:17:46 51°18.465 2°51.009 11.5345 3.489246 30.226257 8.227806
2010-04-30 11:17:51 51°18.465 2°51.01 11.5352 3.490933 30.245049 8.332278
2010-04-30 11:17:55 51°18.465 2°51.012 11.5419 3.490933 30.245049 8.332278
2010-04-30 11:18:01 51°18.464 2°51.013 11.5423 3.489035 30.228097 8.332278
2010-04-30 11:18:05 51°18.464 2°51.014 11.5416 3.490617 30.245879 8.297454
2010-04-30 11:18:11 51°18.463 2°51.016 11.5392 3.490195 30.243759 8.332278
2010-04-30 11:18:15 51°18.463 2°51.017 11.5468 3.489035 30.234544 8.471574
2010-04-30 11:18:21 51°18.463 2°51.018 11.5486 3.4903 30.249289 8.541223
2010-04-30 11:18:26 51°18.462 2°51.02 11.5569 3.4903 30.249289 8.541223
2010-04-30 11:18:31 51°18.462 2°51.021 11.5514 3.490195 30.250211 8.43675
2010-04-30 11:18:35 51°18.461 2°51.023 11.5628 3.48893 30.23998 8.367102
2010-04-30 11:18:41 51°18.46 2°51.024 11.5643 3.489668 30.247077 8.43675
2010-04-30 11:18:46 51°18.46 2°51.026 11.5642 3.489984 30.252055 8.506398
2010-04-30 11:18:51 51°18.459 2°51.027 11.5594 3.489984 30.250765 8.43675
2010-04-30 11:18:55 51°18.459 2°51.029 11.5574 3.489984 30.250765 8.43675
2010-04-30 11:19:01 51°18.458 2°51.03 11.5569 3.4903 30.25187 8.43675
2010-04-30 11:19:06 51°18.457 2°51.032 11.566 3.489984 30.246248 8.332278
2010-04-30 11:19:11 51°18.457 2°51.033 11.5544 3.490195 30.24634 8.26263
2010-04-30 11:19:15 51°18.456 2°51.035 11.5567 3.490511 30.24422 8.227806
2010-04-30 11:19:21 51°18.456 2°51.036 11.5661 3.490511 30.24422 8.227806
2010-04-30 11:19:26 51°18.455 2°51.038 11.5674 3.491038 30.244773 8.26263
2010-04-30 11:19:31 51°18.454 2°51.039 11.5691 3.491249 30.246155 8.192982
2010-04-30 11:19:35 51°18.454 2°51.04 11.571 3.491354 30.246524 8.123334
2010-04-30 11:19:41 51°18.453 2°51.043 11.5678 3.491354 30.247169 8.123334
2010-04-30 11:19:46 51°18.452 2°51.044 11.5748 3.491565 30.250485 8.053686
2010-04-30 11:19:51 51°18.451 2°51.045 11.5805 3.49146 30.246892 8.018862
2010-04-30 11:19:55 51°18.451 2°51.047 11.569 3.49146 30.246892 8.018862
2010-04-30 11:20:01 51°18.45 2°51.048 11.5707 3.491144 30.243852 8.018862
2010-04-30 11:20:05 51°18.45 2°51.05 11.5763 3.491565 30.246616 7.984038
2010-04-30 11:20:11 51°18.449 2°51.051 11.5783 3.490827 30.238878 8.053686
2010-04-30 11:20:15 51°18.448 2°51.053 11.5747 3.491565 30.243392 8.018862
2010-04-30 11:20:21 51°18.448 2°51.054 11.57 3.491565 30.240814 7.809917
2010-04-30 11:20:26 51°18.447 2°51.056 11.5813 3.491565 30.240814 7.809917
2010-04-30 11:20:31 51°18.446 2°51.057 11.5768 3.491671 30.241182 7.879566
2010-04-30 11:20:36 51°18.446 2°51.059 11.5718 3.491354 30.238787 7.844741
2010-04-30 11:20:41 51°18.445 2°51.061 11.5754 3.491776 30.242195 7.775093
2010-04-30 11:20:46 51°18.444 2°51.062 11.5781 3.491671 30.241182 7.670621
2010-04-30 11:20:51 51°18.444 2°51.063 11.5734 3.491671 30.241182 7.670621
2010-04-30 11:20:55 51°18.443 2°51.065 11.5668 3.49146 30.237867 7.705445
2010-04-30 11:21:01 51°18.443 2°51.066 11.562 3.491776 30.240262 7.809917
2010-04-30 11:21:06 51°18.442 2°51.068 11.5654 3.491671 30.237315 7.740269
2010-04-30 11:21:11 51°18.441 2°51.07 11.5819 3.491987 30.239066 7.670621
2010-04-30 11:21:15 51°18.441 2°51.071 11.575 3.491671 30.23796 7.531325
2010-04-30 11:21:21 51°18.44 2°51.073 11.5695 3.491671 30.238604 7.566149
2010-04-30 11:21:26 51°18.439 2°51.074 11.5792 3.491671 30.238604 7.566149
2010-04-30 11:21:31 51°18.439 2°51.075 11.5705 3.491249 30.235841 7.566149
2010-04-30 11:21:35 51°18.439 2°51.076 11.5775 3.491249 30.23713 7.670621
2010-04-30 11:21:41 51°18.438 2°51.078 11.5899 3.491144 30.237405 7.775093
2010-04-30 11:21:46 51°18.438 2°51.08 11.5862 3.490089 30.227918 7.844741
2010-04-30 11:21:51 51°18.437 2°51.081 11.5769 3.490616 30.231695 7.740269
2010-04-30 11:21:55 51°18.437 2°51.082 11.5717 3.490616 30.231695 7.740269
2010-04-30 11:22:01 51°18.437 2°51.084 11.574 3.490722 30.23142 7.670621
2010-04-30 11:22:05 51°18.436 2°51.085 11.578 3.490405 30.228381 7.705445
2010-04-30 11:22:11 51°18.436 2°51.087 11.5673 3.490089 30.225986 7.775093
2010-04-30 11:22:15 51°18.436 2°51.088 11.5699 3.490195 30.223134 7.91439
2010-04-30 11:22:21 51°18.435 2°51.09 11.5696 3.4903 30.222215 7.844741
2010-04-30 11:22:26 51°18.435 2°51.092 11.5646 3.4903 30.222215 7.844741
2010-04-30 11:22:31 51°18.434 2°51.093 11.5644 3.490405 30.221939 7.775093
2010-04-30 11:22:36 51°18.434 2°51.095 11.5632 3.490089 30.220833 7.775093
2010-04-30 11:22:41 51°18.434 2°51.096 11.5653 3.489878 30.220095 7.809917
2010-04-30 11:22:46 51°18.433 2°51.098 11.5672 3.489878 30.222027 7.879566
2010-04-30 11:22:51 51°18.433 2°51.099 11.5655 3.489878 30.222027 7.879566
2010-04-30 11:22:55 51°18.432 2°51.1 11.5659 3.489878 30.22396 7.984038
2010-04-30 11:23:01 51°18.432 2°51.102 11.5658 3.489668 30.221933 7.949214
2010-04-30 11:23:06 51°18.431 2°51.103 11.5597 3.489457 30.220552 7.984038
2010-04-30 11:23:11 51°18.431 2°51.104 11.5617 3.489457 30.222484 7.949214
2010-04-30 11:23:15 51°18.431 2°51.105 11.5623 3.489351 30.224048 7.879566
2010-04-30 11:23:21 51°18.43 2°51.107 11.5651 3.488824 30.22027 7.879566
2010-04-30 11:23:26 51°18.43 2°51.108 11.5675 3.488824 30.22027 7.879566
2010-04-30 11:23:31 51°18.429 2°51.11 11.5669 3.48893 30.219995 8.018862
2010-04-30 11:23:35 51°18.429 2°51.111 11.5646 3.488719 30.218613 8.053686
2010-04-30 11:23:40 51°18.429 2°51.113 11.5638 3.488613 30.2176 8.018862
2010-04-30 11:23:46 51°18.428 2°51.114 11.5664 3.488613 30.218244 8.018862
2010-04-30 11:23:51 51°18.428 2°51.116 11.5687 3.488297 30.215204 7.91439
2010-04-30 11:23:55 51°18.428 2°51.117 11.5678 3.488297 30.215204 7.91439
2010-04-30 11:24:01 51°18.427 2°51.118 11.5684 3.488508 30.216587 7.775093
2010-04-30 11:24:06 51°18.427 2°51.12 11.5699 3.488192 30.213547 7.740269
2010-04-30 11:24:11 51°18.426 2°51.122 11.5674 3.488403 30.215573 7.809917
2010-04-30 11:24:15 51°18.426 2°51.123 11.5679 3.488508 30.216587 7.844741
2010-04-30 11:24:21 51°18.426 2°51.125 11.565 3.487981 30.211521 7.844741
2010-04-30 11:24:26 51°18.425 2°51.127 11.5685 3.487981 30.211521 7.844741
2010-04-30 11:24:31 51°18.425 2°51.128 11.5654 3.487981 30.210233 7.740269
2010-04-30 11:24:36 51°18.425 2°51.13 11.5732 3.487981 30.210877 7.740269
2010-04-30 11:24:41 51°18.425 2°51.132 11.5661 3.488192 30.212903 7.775093
2010-04-30 11:24:46 51°18.424 2°51.134 11.5661 3.488192 30.212903 7.809917
2010-04-30 11:24:51 51°18.424 2°51.135 11.5682 3.488192 30.212903 7.809917
2010-04-30 11:24:55 51°18.424 2°51.137 11.5648 3.488192 30.212903 7.740269
2010-04-30 11:25:01 51°18.424 2°51.138 11.5642 3.488192 30.212903 7.670621
2010-04-30 11:25:05 51°18.424 2°51.139 11.5584 3.488086 30.21189 7.600973
2010-04-30 11:25:11 51°18.423 2°51.141 11.5603 3.487981 30.210233 7.566149
2010-04-30 11:25:15 51°18.423 2°51.143 11.5607 3.488086 30.211246 7.600973
2010-04-30 11:25:21 51°18.423 2°51.145 11.5643 3.487665 30.207193 7.705445
2010-04-30 11:25:26 51°18.423 2°51.147 11.5657 3.487665 30.207193 7.705445
2010-04-30 11:25:31 51°18.423 2°51.148 11.5699 3.487875 30.210508 7.670621
2010-04-30 11:25:35 51°18.423 2°51.149 11.5652 3.48777 30.209494 7.705445
2010-04-30 11:25:41 51°18.422 2°51.151 11.5654 3.487559 30.207468 7.775093
2010-04-30 11:25:46 51°18.422 2°51.153 11.5617 3.487454 30.208387 7.844741
2010-04-30 11:25:51 51°18.422 2°51.154 11.5664 3.487454 30.208387 7.740269
2010-04-30 11:25:55 51°18.422 2°51.155 11.5666 3.487454 30.208387 7.740269
2010-04-30 11:26:01 51°18.421 2°51.157 11.5674 3.487559 30.210044 7.635797
2010-04-30 11:26:06 51°18.421 2°51.159 11.5645 3.487348 30.207374 7.566149
2010-04-30 11:26:11 51°18.421 2°51.16 11.5619 3.487454 30.207099 7.600973
2010-04-30 11:26:15 51°18.421 2°51.162 11.5622 3.487559 30.208112 7.635797
2010-04-30 11:26:21 51°18.42 2°51.164 11.5625 3.487243 30.205073 7.740269
2010-04-30 11:26:26 51°18.42 2°51.165 11.5618 3.487243 30.205073 7.740269
2010-04-30 11:26:31 51°18.42 2°51.167 11.5648 3.487348 30.206086 7.670621
2010-04-30 11:26:35 51°18.42 2°51.169 11.5611 3.487243 30.205073 7.670621
2010-04-30 11:26:41 51°18.42 2°51.171 11.5581 3.487348 30.204798 7.809917
2010-04-30 11:26:46 51°18.419 2°51.173 11.5608 3.487348 30.205442 7.775093
2010-04-30 11:26:51 51°18.419 2°51.174 11.5618 3.487454 30.207743 7.740269
2010-04-30 11:26:55 51°18.419 2°51.176 11.5639 3.487454 30.207743 7.740269
2010-04-30 11:27:01 51°18.419 2°51.178 11.5601 3.487454 30.208387 7.670621
2010-04-30 11:27:06 51°18.419 2°51.18 11.5591 3.487348 30.208018 7.705445
2010-04-30 11:27:11 51°18.418 2°51.182 11.5592 3.487454 30.208387 7.740269
2010-04-30 11:27:15 51°18.418 2°51.183 11.5597 3.487348 30.208662 7.844741
2010-04-30 11:27:21 51°18.418 2°51.186 11.5601 3.487348 30.209306 7.670621
2010-04-30 11:27:26 51°18.417 2°51.188 11.5605 3.487348 30.209306 7.670621
2010-04-30 11:27:31 51°18.417 2°51.19 11.5579 3.487559 30.211332 7.635797
2010-04-30 11:27:35 51°18.417 2°51.191 11.5596 3.487137 30.207923 7.705445
2010-04-30 11:27:41 51°18.417 2°51.193 11.5551 3.487243 30.208293 7.740269
2010-04-30 11:27:46 51°18.417 2°51.195 11.5518 3.487454 30.210963 7.635797
2010-04-30 11:27:51 51°18.417 2°51.197 11.5502 3.484502 30.183237 7.600973
2010-04-30 11:27:55 51°18.416 2°51.198 11.5487 3.484502 30.183237 7.600973
2010-04-30 11:28:01 51°18.416 2°51.2 11.5507 3.487348 30.212527 7.635797
2010-04-30 11:28:06 51°18.416 2°51.202 11.5543 3.487348 30.210594 7.566149
2010-04-30 11:28:11 51°18.416 2°51.204 11.5539 3.487665 30.214923 7.531325
2010-04-30 11:28:15 51°18.415 2°51.206 11.5545 3.487559 30.213265 7.600973
2010-04-30 11:28:21 51°18.415 2°51.208 11.556 3.487559 30.213265 7.600973
2010-04-30 11:28:26 51°18.415 2°51.21 11.5521 3.487665 30.215567 7.844741
2010-04-30 11:28:31 51°18.415 2°51.212 11.5543 3.48777 30.218513 7.984038
2010-04-30 11:28:35 51°18.414 2°51.213 11.5526 3.488086 30.222198 7.949214
2010-04-30 11:28:41 51°18.414 2°51.216 11.5545 3.487454 30.218051 7.809917
2010-04-30 11:28:46 51°18.414 2°51.217 11.5567 3.48777 30.221091 7.775093
2010-04-30 11:28:51 51°18.413 2°51.219 11.5571 3.488086 30.223487 7.775093
2010-04-30 11:28:55 51°18.413 2°51.221 11.5607 3.488086 30.223487 7.775093
2010-04-30 11:29:01 51°18.413 2°51.223 11.563 3.487981 30.221829 7.91439
2010-04-30 11:29:05 51°18.413 2°51.224 11.5638 3.487876 30.222105 8.053686
2010-04-30 11:29:11 51°18.412 2°51.227 11.5601 3.487665 30.218789 8.08851
2010-04-30 11:29:15 51°18.412 2°51.229 11.5605 3.487559 30.217775 8.08851
2010-04-30 11:29:21 51°18.412 2°51.231 11.5585 3.487665 30.218144 7.984038
2010-04-30 11:29:26 51°18.412 2°51.233 11.5626 3.487665 30.218144 7.984038
2010-04-30 11:29:31 51°18.411 2°51.235 11.558 3.487876 30.219527 7.879566
2010-04-30 11:29:36 51°18.411 2°51.237 11.5563 3.487665 30.2175 7.844741
2010-04-30 11:29:41 51°18.411 2°51.239 11.5563 3.487559 30.213909 7.879566
2010-04-30 11:29:46 51°18.412 2°51.241 11.5578 3.487665 30.214278 7.775093
2010-04-30 11:29:51 51°18.412 2°51.242 11.5563 3.487665 30.214278 7.775093
2010-04-30 11:29:55 51°18.412 2°51.244 11.5568 3.487981 30.217318 7.879566
2010-04-30 11:30:01 51°18.413 2°51.246 11.5606 3.488192 30.219345 7.809917
2010-04-30 11:30:06 51°18.414 2°51.247 11.5609 3.487981 30.216674 7.879566
2010-04-30 11:30:11 51°18.416 2°51.249 11.5573 3.488824 30.224781 7.879566
2010-04-30 11:30:15 51°18.417 2°51.249 11.5503 3.488297 30.221647 7.91439
2010-04-30 11:30:21 51°18.42 2°51.251 11.5494 3.488297 30.221647 7.91439
2010-04-30 11:30:26 51°18.422 2°51.251 11.5501 3.488192 30.221278 7.91439
2010-04-30 11:30:31 51°18.425 2°51.252 11.5489 3.488192 30.221923 8.08851
2010-04-30 11:30:35 51°18.427 2°51.252 11.5486 3.488508 30.224963 8.123334
2010-04-30 11:30:41 51°18.432 2°51.253 11.5487 3.488192 30.222567 8.332278
2010-04-30 11:30:46 51°18.436 2°51.254 11.5487 3.488613 30.225977 8.541223
2010-04-30 11:30:51 51°18.44 2°51.255 11.5528 3.488719 30.227635 8.959111
2010-04-30 11:30:55 51°18.444 2°51.256 11.5478 3.488719 30.227635 8.959111
2010-04-30 11:31:01 51°18.45 2°51.259 11.5502 3.488297 30.226159 9.237704
2010-04-30 11:31:05 51°18.453 2°51.261 11.5453 3.488297 30.227449 9.377
2010-04-30 11:31:11 51°18.46 2°51.265 11.5452 3.488086 30.226711 9.516296
2010-04-30 11:31:15 51°18.464 2°51.269 11.5379 3.487876 30.225328 9.794888
2010-04-30 11:31:21 51°18.47 2°51.276 11.5392 3.487665 30.223301 9.690416
2010-04-30 11:31:26 51°18.475 2°51.283 11.5365 3.487665 30.223301 9.690416
2010-04-30 11:31:31 51°18.479 2°51.291 11.5303 3.487454 30.221274 9.72524
2010-04-30 11:31:35 51°18.482 2°51.299 11.5298 3.487348 30.22026 9.864537
2010-04-30 11:31:41 51°18.485 2°51.31 11.5301 3.487032 30.216575 10.073481
2010-04-30 11:31:46 51°18.487 2°51.321 11.5294 3.487138 30.218877 10.212777
2010-04-30 11:31:51 51°18.488 2°51.332 11.5307 3.487138 30.218877 10.212777
2010-04-30 11:31:55 51°18.489 2°51.342 11.5296 3.486716 30.215467 10.317249
2010-04-30 11:32:01 51°18.488 2°51.356 11.5287 3.487032 30.221087 10.456545
2010-04-30 11:32:06 51°18.487 2°51.368 11.5302 3.487138 30.222745 10.630666
2010-04-30 11:32:11 51°18.484 2°51.379 11.5274 3.487243 30.226983 10.804786
2010-04-30 11:32:15 51°18.482 2°51.388 11.5352 3.487454 30.230301 10.909258
2010-04-30 11:32:21 51°18.478 2°51.401 11.5352 3.487349 30.229932 11.083378
2010-04-30 11:32:26 51°18.473 2°51.411 11.5398 3.487349 30.229932 11.083378
2010-04-30 11:32:31 51°18.468 2°51.419 11.5388 3.487138 30.228549 11.048554
2010-04-30 11:32:35 51°18.463 2°51.426 11.5387 3.487243 30.229563 11.153027
2010-04-30 11:32:40 51°18.457 2°51.433 11.5348 3.487243 30.228273 11.118203
2010-04-30 11:32:46 51°18.45 2°51.44 11.5352 3.486927 30.225232 11.187851
2010-04-30 11:32:51 51°18.443 2°51.445 11.5353 3.486505 30.221176 11.222675
2010-04-30 11:32:55 51°18.437 2°51.447 11.5358 3.486505 30.221176 11.222675
2010-04-30 11:33:01 51°18.429 2°51.451 11.5347 3.486294 30.216569 11.361971
2010-04-30 11:33:06 51°18.422 2°51.453 11.5374 3.485978 30.210305 11.396795
2010-04-30 11:33:11 51°18.415 2°51.455 11.541 3.485451 30.204592 11.396795
2010-04-30 11:33:15 51°18.408 2°51.455 11.5394 3.485556 30.204317 11.396795
2010-04-30 11:33:21 51°18.4 2°51.456 11.5405 3.485978 30.209661 11.327147
2010-04-30 11:33:26 51°18.392 2°51.457 11.5411 3.485978 30.209661 11.327147
2010-04-30 11:33:31 51°18.384 2°51.457 11.5441 3.486505 30.215373 11.257499
2010-04-30 11:33:35 51°18.377 2°51.458 11.5467 3.486927 30.219428 11.118203
2010-04-30 11:33:41 51°18.368 2°51.46 11.5485 3.487243 30.22247 10.909258
2010-04-30 11:33:46 51°18.359 2°51.461 11.5501 3.487454 30.225787 10.769962
2010-04-30 11:33:51 51°18.35 2°51.464 11.552 3.487454 30.225787 10.769962
2010-04-30 11:33:55 51°18.343 2°51.466 11.5534 3.487349 30.224773 10.66549
2010-04-30 11:34:01 51°18.333 2°51.469 11.5564 3.487559 30.224866 10.561018
2010-04-30 11:34:06 51°18.324 2°51.472 11.5569 3.487559 30.223577 10.421721
2010-04-30 11:34:11 51°18.315 2°51.475 11.5584 3.487559 30.222287 10.247601
2010-04-30 11:34:15 51°18.307 2°51.478 11.5585 3.487665 30.222012 10.177953
2010-04-30 11:34:21 51°18.297 2°51.484 11.563 3.487454 30.218051 10.073481
2010-04-30 11:34:26 51°18.288 2°51.489 11.5655 3.487454 30.218051 10.073481
2010-04-30 11:34:31 51°18.279 2°51.495 11.5671 3.487981 30.221185 9.934185
2010-04-30 11:34:35 51°18.271 2°51.499 11.5641 3.487559 30.217131 9.72524
2010-04-30 11:34:41 51°18.26 2°51.504 11.5591 3.488192 30.219345 9.55112
2010-04-30 11:34:46 51°18.251 2°51.509 11.5584 3.488086 30.217687 9.481472
2010-04-30 11:34:51 51°18.242 2°51.514 11.5596 3.487559 30.210688 9.516296
2010-04-30 11:34:55 51°18.234 2°51.519 11.5612 3.487559 30.210688 9.516296
2010-04-30 11:35:01 51°18.223 2°51.525 11.5643 3.488403 30.21815 9.446648
2010-04-30 11:35:06 51°18.214 2°51.531 11.5634 3.488508 30.216587 9.20288
2010-04-30 11:35:11 51°18.204 2°51.537 11.5668 3.488824 30.217694 8.854639
2010-04-30 11:35:15 51°18.197 2°51.541 11.5718 3.489984 30.229483 8.610871
2010-04-30 11:35:21 51°18.186 2°51.548 11.5727 3.489984 30.229483 8.610871
2010-04-30 11:35:26 51°18.177 2°51.555 11.5754 3.490616 30.234273 8.506398
2010-04-30 11:35:31 51°18.167 2°51.561 11.575 3.49146 30.243668 8.367102
2010-04-30 11:35:35 51°18.16 2°51.566 11.5775 3.490722 30.23722 8.332278
2010-04-30 11:35:41 51°18.149 2°51.573 11.5776 3.492198 30.251406 8.297454
2010-04-30 11:35:46 51°18.14 2°51.579 11.5811 3.492409 30.252143 8.192982
2010-04-30 11:35:51 51°18.13 2°51.585 11.5767 3.492619 30.252235 7.91439
2010-04-30 11:35:55 51°18.123 2°51.59 11.5763 3.492619 30.252235 7.91439
2010-04-30 11:36:01 51°18.111 2°51.597 11.5754 3.493779 30.260801 7.426853
2010-04-30 11:36:05 51°18.104 2°51.601 11.5709 3.49515 30.272037 6.904492
2010-04-30 11:36:11 51°18.093 2°51.607 11.566 3.495993 30.276917 6.416955
2010-04-30 11:36:15 51°18.085 2°51.611 11.561 3.498629 30.300955 6.173187
2010-04-30 11:36:21 51°18.074 2°51.617 11.5567 3.499894 30.311822 5.85977
2010-04-30 11:36:26 51°18.064 2°51.622 11.5574 3.499894 30.311822 5.85977
2010-04-30 11:36:31 51°18.055 2°51.627 11.552 3.500948 30.320663 5.68565
2010-04-30 11:36:36 51°18.045 2°51.632 11.5412 3.50137 30.326008 5.546354
2010-04-30 11:36:41 51°18.036 2°51.636 11.5393 3.502846 30.339548 5.476706
2010-04-30 11:36:46 51°18.027 2°51.64 11.53 3.503795 30.351902 5.33741
2010-04-30 11:36:51 51°18.018 2°51.64 11.5214 3.504322 30.35891 5.267761
2010-04-30 11:36:55 51°18.011 2°51.641 11.5212 3.504322 30.35891 5.267761
2010-04-30 11:37:01 51°18 2°51.639 11.524 3.504322 30.362793 5.163289
2010-04-30 11:37:06 51°17.993 2°51.636 11.5269 3.504849 30.370451 5.093641
2010-04-30 11:37:11 51°17.986 2°51.633 11.5284 3.506641 30.390926 5.023993
2010-04-30 11:37:15 51°17.981 2°51.629 11.5323 3.507379 30.400617 4.884697
2010-04-30 11:37:21 51°17.974 2°51.622 11.5337 3.507379 30.400617 4.884697
2010-04-30 11:37:26 51°17.969 2°51.616 11.5318 3.507485 30.407466 4.675753
2010-04-30 11:37:31 51°17.965 2°51.609 11.5369 3.509172 30.428888 4.466808
2010-04-30 11:37:35 51°17.962 2°51.604 11.5388 3.509804 30.438871 4.39716
2010-04-30 11:37:41 51°17.958 2°51.594 11.5389 3.50991 30.442484 4.431984
2010-04-30 11:37:46 51°17.957 2°51.586 11.541 3.510226 30.446178 4.39716
2010-04-30 11:37:51 51°17.955 2°51.578 11.5416 3.510121 30.445813 4.39716
2010-04-30 11:37:55 51°17.955 2°51.572 11.5439 3.510121 30.445813 4.39716
2010-04-30 11:38:01 51°17.956 2°51.563 11.5431 3.510121 30.444513 4.39716
2010-04-30 11:38:05 51°17.957 2°51.558 11.5375 3.510332 30.445894 4.362336
2010-04-30 11:38:11 51°17.958 2°51.552 11.5359 3.510437 30.446259 4.327512
2010-04-30 11:38:15 51°17.959 2°51.549 11.5326 3.510542 30.445974 4.362336
2010-04-30 11:38:21 51°17.961 2°51.546 11.525 3.510332 30.443295 4.292688
2010-04-30 11:38:26 51°17.962 2°51.544 11.5234 3.510332 30.443295 4.292688
2010-04-30 11:38:31 51°17.964 2°51.543 11.5269 3.510226 30.441631 4.362336
2010-04-30 11:38:36 51°17.966 2°51.542 11.5286 3.510648 30.445041 4.39716
2010-04-30 11:38:41 51°17.967 2°51.542 11.5286 3.510859 30.448369 4.501632
2010-04-30 11:38:46 51°17.968 2°51.543 11.529 3.510964 30.449384 4.57128
2010-04-30 11:38:51 51°17.969 2°51.543 11.5226 3.510859 30.450968 4.606104
2010-04-30 11:38:55 51°17.97 2°51.544 11.5186 3.510859 30.450968 4.606104
2010-04-30 11:39:01 51°17.972 2°51.545 11.5142 3.510964 30.454582 4.640929
2010-04-30 11:39:06 51°17.973 2°51.546 11.509 3.511386 30.462542 4.466808
2010-04-30 11:39:11 51°17.975 2°51.547 11.5028 3.51107 30.460797 4.466808
2010-04-30 11:39:15 51°17.976 2°51.548 11.4973 3.510543 30.457021 4.362336
2010-04-30 11:39:21 51°17.977 2°51.549 11.4982 3.510332 30.455641 4.39716
2010-04-30 11:39:26 51°17.978 2°51.55 11.4965 3.510332 30.455641 4.39716
2010-04-30 11:39:31 51°17.98 2°51.552 11.5011 3.510964 30.461732 4.501632
2010-04-30 11:39:35 51°17.98 2°51.552 11.502 3.510753 30.462952 4.57128
2010-04-30 11:39:41 51°17.982 2°51.554 11.503 3.510754 30.466855 4.640929
2010-04-30 11:39:46 51°17.983 2°51.555 11.5041 3.510964 30.471488 4.675753
2010-04-30 11:39:51 51°17.984 2°51.557 11.5065 3.510754 30.474011 4.710577
2010-04-30 11:39:55 51°17.984 2°51.558 11.5076 3.510754 30.474011 4.710577
2010-04-30 11:40:01 51°17.985 2°51.56 11.5093 3.511175 30.481329 4.710577
2010-04-30 11:40:05 51°17.986 2°51.561 11.5102 3.51107 30.482917 4.745401
2010-04-30 11:40:11 51°17.987 2°51.564 11.5113 3.510754 30.481823 4.57128
2010-04-30 11:40:15 51°17.988 2°51.565 11.5161 3.510859 30.482188 4.501632
2010-04-30 11:40:21 51°17.989 2°51.568 11.5215 3.510543 30.479791 4.362336
2010-04-30 11:40:26 51°17.989 2°51.57 11.5229 3.510543 30.479791 4.362336
2010-04-30 11:40:31 51°17.99 2°51.572 11.5175 3.510437 30.476822 4.22304
2010-04-30 11:40:36 51°17.991 2°51.574 11.5138 3.510332 30.474504 4.188216
2010-04-30 11:40:41 51°17.991 2°51.577 11.5142 3.510226 30.471536 4.153392
2010-04-30 11:40:46 51°17.992 2°51.579 11.5179 3.510543 30.473932 4.188216
2010-04-30 11:40:51 51°17.993 2°51.582 11.5193 3.510543 30.473932 4.188216
2010-04-30 11:40:55 51°17.993 2°51.584 11.5218 3.510648 30.474297 4.083744
2010-04-30 11:41:01 51°17.994 2°51.587 11.5223 3.510859 30.473075 4.014096
2010-04-30 11:41:06 51°17.994 2°51.59 11.5162 3.510437 30.46576 4.014096
2010-04-30 11:41:11 51°17.995 2°51.593 11.514 3.510859 30.470472 4.083744
2010-04-30 11:41:15 51°17.995 2°51.595 11.5142 3.511175 30.473519 4.083744
2010-04-30 11:41:21 51°17.996 2°51.598 11.5165 3.511492 30.477867 4.04892
2010-04-30 11:41:26 51°17.996 2°51.601 11.5193 3.511492 30.477867 4.04892
2010-04-30 11:41:31 51°17.997 2°51.604 11.5204 3.511175 30.473519 4.04892
2010-04-30 11:41:35 51°17.997 2°51.606 11.5204 3.511281 30.473884 4.04892
2010-04-30 11:41:40 51°17.997 2°51.609 11.5207 3.51107 30.470551 4.083744
2010-04-30 11:41:46 51°17.998 2°51.613 11.5211 3.511175 30.472217 4.04892
2010-04-30 11:41:51 51°17.998 2°51.616 11.5217 3.51107 30.472503 3.979271
2010-04-30 11:41:55 51°17.999 2°51.618 11.5229 3.51107 30.472503 3.979271
2010-04-30 11:42:01 51°17.999 2°51.622 11.5233 3.510859 30.471773 3.944447
2010-04-30 11:42:05 51°17.999 2°51.624 11.5184 3.510754 30.470107 3.805151
2010-04-30 11:42:11 51°17.999 2°51.628 11.5166 3.510648 30.468441 3.770327
2010-04-30 11:42:15 51°18 2°51.631 11.5149 3.510754 30.468156 3.735503
2010-04-30 11:42:21 51°18 2°51.635 11.5085 3.510754 30.468156 3.735503
2010-04-30 11:42:26 51°18 2°51.639 11.5062 3.510543 30.464824 3.735503
2010-04-30 11:42:31 51°18 2°51.642 11.5039 3.510226 30.461778 3.700679
2010-04-30 11:42:36 51°18.001 2°51.645 11.5036 3.509699 30.456701 3.735503
2010-04-30 11:42:41 51°18.001 2°51.648 11.502 3.510543 30.464173 3.735503
2010-04-30 11:42:46 51°18.001 2°51.652 11.5043 3.510859 30.46787 3.770327
2010-04-30 11:42:51 51°18.001 2°51.655 11.5052 3.510859 30.46787 3.770327
2010-04-30 11:42:55 51°18.001 2°51.657 11.5103 3.510543 30.466775 3.874799
2010-04-30 11:43:01 51°18.001 2°51.661 11.512 3.50991 30.463284 3.909623
2010-04-30 11:43:05 51°18.001 2°51.664 11.5105 3.510859 30.474376 3.944447
2010-04-30 11:43:11 51°18.001 2°51.668 11.5117 3.50991 30.467187 3.909623
2010-04-30 11:43:15 51°18.001 2°51.67 11.513 3.510964 30.478646 3.909623
2010-04-30 11:43:21 51°18.001 2°51.674 11.512 3.511281 30.482996 3.839975
2010-04-30 11:43:26 51°18.001 2°51.678 11.5128 3.511281 30.482996 3.839975
2010-04-30 11:43:31 51°18.001 2°51.681 11.5144 3.510965 30.480599 3.700679
2010-04-30 11:43:35 51°18.001 2°51.684 11.5156 3.509805 30.468124 3.665855
2010-04-30 11:43:41 51°18.001 2°51.688 11.5196 3.511175 30.480027 3.665855
2010-04-30 11:43:46 51°18.001 2°51.691 11.5184 3.510964 30.477344 3.805151
2010-04-30 11:43:51 51°18.001 2°51.695 11.5153 3.510437 30.471615 3.735503
2010-04-30 11:43:55 51°18.001 2°51.697 11.5154 3.510437 30.471615 3.735503
2010-04-30 11:44:00 51°18.001 2°51.701 11.5121 3.510859 30.475678 3.700679
2010-04-30 11:44:06 51°18.001 2°51.704 11.5134 3.510859 30.475027 3.700679
2010-04-30 11:44:11 51°18.001 2°51.708 11.5153 3.510754 30.47271 3.665855
2010-04-30 11:44:15 51°18.001 2°51.71 11.5172 3.511175 30.475471 3.561383
2010-04-30 11:44:21 51°18.001 2°51.714 11.5183 3.511175 30.475471 3.561383
2010-04-30 11:44:26 51°18.002 2°51.716 11.5223 3.511175 30.474169 3.596207
2010-04-30 11:44:31 51°18.002 2°51.72 11.5246 3.511175 30.474169 3.596207
2010-04-30 11:44:36 51°18.002 2°51.723 11.527 3.511386 30.476851 3.596207
2010-04-30 11:44:42 51°18.002 2°51.727 11.5284 3.511386 30.478153 3.665855
2010-04-30 11:44:46 51°18.002 2°51.729 11.5302 3.511492 30.479819 3.561383
2010-04-30 11:44:51 51°18.003 2°51.733 11.5305 3.511492 30.479819 3.561383
2010-04-30 11:44:55 51°18.003 2°51.736 11.528 3.510859 30.473075 3.561383
2010-04-30 11:45:01 51°18.003 2°51.74 11.5254 3.511175 30.475471 3.456911
2010-04-30 11:45:06 51°18.004 2°51.743 11.5256 3.511702 30.478596 3.456911
2010-04-30 11:45:11 51°18.003 2°51.747 11.5232 3.510543 30.466125 3.352439
2010-04-30 11:45:16 51°18.003 2°51.75 11.5214 3.511808 30.476358 3.317614
2010-04-30 11:45:21 51°18.004 2°51.753 11.5229 3.51107 30.466649 3.28279
2010-04-30 11:45:26 51°18.003 2°51.756 11.523 3.51107 30.466649 3.28279
2010-04-30 11:45:31 51°18.003 2°51.759 11.5236 3.510964 30.464333 3.352439
2010-04-30 11:45:35 51°18.003 2°51.761 11.5248 3.511913 30.47282 3.456911
2010-04-30 11:45:42 51°18.003 2°51.766 11.5253 3.511913 30.47282 3.456911
2010-04-30 11:45:46 51°18.003 2°51.768 11.5273 3.512229 30.475866 3.526559
2010-04-30 11:45:52 51°18.003 2°51.772 11.5294 3.512229 30.475866 3.526559
2010-04-30 11:45:55 51°18.003 2°51.774 11.5277 3.512019 30.475136 3.526559
2010-04-30 11:46:02 51°18.004 2°51.779 11.5276 3.511808 30.475057 3.456911
2010-04-30 11:46:06 51°18.004 2°51.781 11.5266 3.511913 30.476723 3.456911
2010-04-30 11:46:11 51°18.004 2°51.785 11.5225 3.512019 30.476437 3.387263
2010-04-30 11:46:15 51°18.004 2°51.788 11.5229 3.510964 30.466284 3.422087
2010-04-30 11:46:21 51°18.005 2°51.791 11.5256 3.510964 30.466284 3.422087
2010-04-30 11:46:26 51°18.005 2°51.794 11.5287 3.512019 30.475136 3.387263
2010-04-30 11:46:31 51°18.005 2°51.798 11.5302 3.51244 30.479198 3.387263
2010-04-30 11:46:35 51°18.005 2°51.801 11.5173 3.510964 30.464983 3.352439
2010-04-30 11:46:41 51°18.005 2°51.804 11.4874 3.511808 30.472455 3.387263
2010-04-30 11:46:46 51°18.005 2°51.808 11.4666 3.511808 30.471805 3.526559
2010-04-30 11:46:51 51°18.005 2°51.811 11.4424 3.512335 30.479484 3.491735
2010-04-30 11:46:55 51°18.005 2°51.813 11.4409 3.512335 30.479484 3.491735
2010-04-30 11:47:01 51°18.006 2°51.817 11.4418 3.512229 30.478468 3.422087
2010-04-30 11:47:06 51°18.006 2°51.82 11.4469 3.512335 30.478182 3.352439
2010-04-30 11:47:12 51°18.008 2°51.824 11.4485 3.511175 30.467664 3.317614
2010-04-30 11:47:16 51°18.007 2°51.825 11.4472 3.511597 30.476279 3.352439
2010-04-30 11:47:21 51°18.009 2°51.829 11.4439 3.511597 30.476279 3.352439
2010-04-30 11:47:26 51°18.01 2°51.832 11.4416 3.513179 30.502584 3.456911
2010-04-30 11:47:31 51°18.012 2°51.835 11.4327 3.514971 30.534205 3.561383
2010-04-30 11:47:35 51°18.013 2°51.836 11.442 3.51455 30.544501 3.561383
2010-04-30 11:47:41 51°18.015 2°51.838 11.4532 3.514022 30.547908 3.491735
2010-04-30 11:47:46 51°18.017 2°51.84 11.4527 3.514444 30.556552 3.561383
2010-04-30 11:47:51 51°18.019 2°51.841 11.4559 3.514444 30.556552 3.561383
2010-04-30 11:47:55 51°18.021 2°51.841 11.4681 3.512441 30.539835 3.561383
2010-04-30 11:48:01 51°18.023 2°51.842 11.4824 3.512441 30.541142 3.596207
2010-04-30 11:48:06 51°18.025 2°51.843 11.4961 3.513496 30.554586 3.735503
2010-04-30 11:48:11 51°18.027 2°51.843 11.504 3.513812 30.560254 3.735503
2010-04-30 11:48:15 51°18.029 2°51.842 11.5068 3.512547 30.547388 3.700679
2010-04-30 11:48:21 51°18.031 2°51.842 11.5104 3.512547 30.547388 3.700679
2010-04-30 11:48:26 51°18.033 2°51.841 11.5146 3.512547 30.545427 3.805151
2010-04-30 11:48:31 51°18.034 2°51.84 11.5154 3.511703 30.535326 3.944447
2010-04-30 11:48:35 51°18.036 2°51.839 11.5159 3.511387 30.525742 4.014096
2010-04-30 11:48:41 51°18.038 2°51.837 11.5181 3.510543 30.511078 4.014096
2010-04-30 11:48:46 51°18.04 2°51.835 11.5264 3.508751 30.484663 3.944447
2010-04-30 11:48:51 51°18.041 2°51.832 11.5293 3.508645 30.474525 4.014096
2010-04-30 11:48:55 51°18.042 2°51.83 11.5345 3.508645 30.474525 4.014096
2010-04-30 11:49:01 51°18.043 2°51.825 11.5387 3.508434 30.466632 4.118568
2010-04-30 11:49:06 51°18.044 2°51.821 11.5368 3.508329 30.46041 4.257864
2010-04-30 11:49:11 51°18.044 2°51.817 11.5358 3.509699 30.469711 4.292688
2010-04-30 11:49:15 51°18.044 2°51.814 11.528 3.50991 30.468489 4.362336
2010-04-30 11:49:21 51°18.043 2°51.808 11.5175 3.50991 30.468489 4.362336
2010-04-30 11:49:26 51°18.041 2°51.804 11.5241 3.508012 30.448256 4.431984
2010-04-30 11:49:31 51°18.039 2°51.8 11.5287 3.507802 30.442324 4.501632
2010-04-30 11:49:36 51°18.037 2°51.797 11.5335 3.509067 30.449308 4.57128
2010-04-30 11:49:41 51°18.034 2°51.794 11.5367 3.508539 30.441632 4.640929
2010-04-30 11:49:46 51°18.03 2°51.792 11.537 3.507063 30.424822 4.675753
2010-04-30 11:49:51 51°18.026 2°51.791 11.5387 3.507063 30.424822 4.675753
2010-04-30 11:49:55 51°18.023 2°51.791 11.5416 3.507274 30.427502 4.675753
2010-04-30 11:50:01 51°18.018 2°51.792 11.5429 3.509172 30.447723 4.640929
2010-04-30 11:50:06 51°18.013 2°51.793 11.5416 3.507907 30.436191 4.675753
2010-04-30 11:50:11 51°18.008 2°51.796 11.5428 3.508012 30.436556 4.780225
2010-04-30 11:50:15 51°18.004 2°51.798 11.5412 3.509172 30.444474 4.815049
2010-04-30 11:50:21 51°17.996 2°51.803 11.5406 3.508961 30.441144 4.919521
2010-04-30 11:50:26 51°17.988 2°51.808 11.515 3.508961 30.441144 4.919521
2010-04-30 11:50:31 51°17.98 2°51.813 11.5033 3.508856 30.437531 4.884697
2010-04-30 11:50:35 51°17.972 2°51.818 11.4806 3.509066 30.437612 4.919521
2010-04-30 11:50:40 51°17.962 2°51.824 11.4562 3.509066 30.435664 5.023993
2010-04-30 11:50:46 51°17.949 2°51.831 11.4555 3.508856 30.432336 5.093641
2010-04-30 11:50:51 51°17.937 2°51.839 11.4746 3.509066 30.434365 5.163289
2010-04-30 11:50:55 51°17.926 2°51.845 11.4846 3.509066 30.434365 5.163289
2010-04-30 11:51:01 51°17.909 2°51.854 11.4929 3.509383 30.436111 5.198113
2010-04-30 11:51:06 51°17.894 2°51.862 11.4937 3.509383 30.440657 5.163289
2010-04-30 11:51:11 51°17.879 2°51.872 11.4729 3.510015 30.455195 5.093641
2010-04-30 11:51:15 51°17.867 2°51.878 11.4941 3.511492 30.481121 4.989169
2010-04-30 11:51:20 51°17.85 2°51.889 11.5041 3.512652 30.507279 4.815049
2010-04-30 11:51:26 51°17.831 2°51.902 11.5116 3.512652 30.507279 4.815049
2010-04-30 11:51:31 51°17.815 2°51.914 11.5208 3.513073 30.519822 4.745401
2010-04-30 11:51:35 51°17.802 2°51.923 11.5278 3.512968 30.518153 4.675753
2010-04-30 11:51:41 51°17.782 2°51.937 11.5336 3.512124 30.506109 4.640929
2010-04-30 11:51:46 51°17.766 2°51.949 11.5422 3.51223 30.503214 4.640929
2010-04-30 11:51:51 51°17.75 2°51.963 11.5609 3.51223 30.503214 4.640929
2010-04-30 11:51:56 51°17.734 2°51.977 11.5763 3.513284 30.514681 4.57128
2010-04-30 11:52:01 51°17.718 2°51.992 11.5896 3.51339 30.512437 4.466808
2010-04-30 11:52:06 51°17.703 2°52.007 11.5981 3.513073 30.50222 4.501632
2010-04-30 11:52:11 51°17.687 2°52.024 11.6089 3.514865 30.514278 4.57128
2010-04-30 11:52:15 51°17.675 2°52.038 11.6192 3.515814 30.516252 4.57128
2010-04-30 11:52:21 51°17.657 2°52.058 11.6228 3.517817 30.529033 4.536456
2010-04-30 11:52:26 51°17.642 2°52.078 11.6228 3.517817 30.529033 4.536456
2010-04-30 11:52:31 51°17.628 2°52.096 11.6166 3.51845 30.529262 4.466808
2010-04-30 11:52:35 51°17.616 2°52.111 11.6201 3.519082 30.521676 4.431984
2010-04-30 11:52:40 51°17.602 2°52.131 11.6255 3.518766 30.506268 4.431984
2010-04-30 11:52:46 51°17.584 2°52.153 11.6258 3.519714 30.503693 4.39716
2010-04-30 11:52:51 51°17.569 2°52.168 11.6208 3.518554 30.485392 4.466808
2010-04-30 11:52:55 51°17.556 2°52.18 11.6179 3.518554 30.485392 4.466808
2010-04-30 11:53:01 51°17.537 2°52.195 11.6122 3.519187 30.481085 4.606104
2010-04-30 11:53:06 51°17.521 2°52.209 11.6013 3.518765 30.469893 4.606104
2010-04-30 11:53:11 51°17.505 2°52.223 11.5921 3.516129 30.441321 4.57128
2010-04-30 11:53:15 51°17.493 2°52.237 11.5924 3.515075 30.4286 4.536456
2010-04-30 11:53:21 51°17.475 2°52.256 11.5969 3.515075 30.4286 4.536456
2010-04-30 11:53:26 51°17.461 2°52.276 11.5959 3.51381 30.411267 4.39716
2010-04-30 11:53:31 51°17.447 2°52.296 11.5906 3.513177 30.402602 4.292688
2010-04-30 11:53:35 51°17.437 2°52.313 11.5897 3.512545 30.397821 4.22304
2010-04-30 11:53:41 51°17.422 2°52.339 11.5901 3.512755 30.401787 4.292688
2010-04-30 11:53:46 51°17.41 2°52.363 11.5903 3.513072 30.412592 4.292688
2010-04-30 11:53:51 51°17.398 2°52.386 11.5889 3.514126 30.426608 4.292688
2010-04-30 11:53:55 51°17.389 2°52.405 11.5901 3.514126 30.426608 4.292688
2010-04-30 11:54:01 51°17.374 2°52.433 11.5848 3.515602 30.446627 4.292688
2010-04-30 11:54:05 51°17.365 2°52.452 11.5864 3.516024 30.451329 4.362336
2010-04-30 11:54:11 51°17.351 2°52.479 11.5771 3.516235 30.455302 4.501632
2010-04-30 11:54:15 51°17.341 2°52.498 11.5775 3.517184 30.46637 4.57128
2010-04-30 11:54:21 51°17.327 2°52.526 11.5714 3.515813 30.454491 4.640929
2010-04-30 11:54:26 51°17.314 2°52.548 11.5687 3.515813 30.454491 4.640929
2010-04-30 11:54:31 51°17.301 2°52.569 11.5662 3.516024 30.456518 4.815049
2010-04-30 11:54:35 51°17.292 2°52.588 11.5638 3.5175 30.470709 4.989169
2010-04-30 11:54:41 51°17.276 2°52.613 11.5664 3.511912 30.416991 5.128465
2010-04-30 11:54:46 51°17.262 2°52.634 11.5639 3.516235 30.459194 5.198113
2010-04-30 11:54:51 51°17.248 2°52.653 11.562 3.516235 30.459194 5.198113
2010-04-30 11:54:55 51°17.237 2°52.669 11.562 3.517078 30.4699 5.267761
2010-04-30 11:55:00 51°17.223 2°52.687 11.5648 3.517711 30.479229 5.198113
2010-04-30 11:55:06 51°17.204 2°52.707 11.5751 3.51613 30.467267 5.093641
2010-04-30 11:55:11 51°17.189 2°52.722 11.5817 3.516341 30.471892 5.023993
2010-04-30 11:55:15 51°17.176 2°52.732 11.5902 3.517395 30.483332 4.989169
2010-04-30 11:55:20 51°17.16 2°52.746 11.5912 3.517395 30.483332 4.989169
2010-04-30 11:55:26 51°17.14 2°52.758 11.5902 3.516024 30.472097 4.989169
2010-04-30 11:55:31 51°17.123 2°52.768 11.5878 3.517606 30.488609 5.058817
2010-04-30 11:55:35 51°17.109 2°52.774 11.5754 3.516762 30.480495 5.128465
2010-04-30 11:55:41 51°17.088 2°52.785 11.5666 3.517395 30.485281 5.198113
2010-04-30 11:55:46 51°17.072 2°52.794 11.5597 3.516341 30.473191 5.163289
2010-04-30 11:55:51 51°17.055 2°52.804 11.5561 3.517817 30.482191 5.198113
2010-04-30 11:55:56 51°17.038 2°52.816 11.5588 3.517817 30.482191 5.198113
2010-04-30 11:56:01 51°17.022 2°52.827 11.5665 3.515286 30.454613 5.33741
2010-04-30 11:56:06 51°17.006 2°52.841 11.5744 3.517395 30.472292 5.33741
2010-04-30 11:56:11 51°16.99 2°52.854 11.5815 3.517395 30.470344 5.372234
2010-04-30 11:56:15 51°16.977 2°52.867 11.5836 3.518554 30.484742 5.302586
2010-04-30 11:56:21 51°16.959 2°52.886 11.582 3.519609 30.500729 5.33741
2010-04-30 11:56:26 51°16.944 2°52.904 11.5673 3.519609 30.500729 5.33741
2010-04-30 11:56:31 51°16.929 2°52.92 11.5486 3.519082 30.502809 5.372234
2010-04-30 11:56:36 51°16.916 2°52.941 11.533 3.521296 30.528015 5.372234
2010-04-30 11:56:41 51°16.901 2°52.96 11.5216 3.520136 30.516855 5.407058
2010-04-30 11:56:46 51°16.889 2°52.982 11.5244 3.520558 30.51701 5.476706
2010-04-30 11:56:51 51°16.876 2°53.004 11.5244 3.520558 30.51701 5.476706
2010-04-30 11:56:55 51°16.866 2°53.022 11.5286 3.520874 30.517451 5.441882
2010-04-30 11:57:00 51°16.855 2°53.046 11.537 3.521401 30.51797 5.441882
2010-04-30 11:57:06 51°16.841 2°53.075 11.5362 3.521928 30.524992 5.407058
2010-04-30 11:57:11 51°16.83 2°53.1 11.5337 3.521612 30.528455 5.232937
2010-04-30 11:57:15 51°16.822 2°53.121 11.5321 3.522245 30.54496 5.058817
2010-04-30 11:57:21 51°16.811 2°53.154 11.5232 3.522245 30.54496 5.058817
2010-04-30 11:57:26 51°16.801 2°53.18 11.505 3.521823 30.550021 4.989169
2010-04-30 11:57:31 51°16.794 2°53.208 11.501 3.522351 30.562921 4.989169
2010-04-30 11:57:35 51°16.788 2°53.228 11.4988 3.521402 30.555086 5.163289
2010-04-30 11:57:40 51°16.783 2°53.253 11.5068 3.521402 30.555086 5.372234
2010-04-30 11:57:46 51°16.777 2°53.282 11.5191 3.523827 30.575832 5.581178
2010-04-30 11:57:51 51°16.771 2°53.304 11.5286 3.523721 30.574817 5.650826
2010-04-30 11:57:55 51°16.767 2°53.321 11.5342 3.523721 30.574817 5.650826
2010-04-30 11:58:01 51°16.76 2°53.343 11.5413 3.523932 30.578805 5.755298
2010-04-30 11:58:06 51°16.753 2°53.358 11.5612 3.524143 30.58671 5.755298
2010-04-30 11:58:11 51°16.745 2°53.37 11.5751 3.524248 30.594909 5.755298
2010-04-30 11:58:15 51°16.74 2°53.379 11.5854 3.524143 30.598466 5.824946
2010-04-30 11:58:21 51°16.731 2°53.389 11.593 3.524143 30.598466 5.824946
2010-04-30 11:58:26 51°16.724 2°53.397 11.5979 3.523511 30.593023 5.929418
2010-04-30 11:58:31 51°16.717 2°53.402 11.6005 3.522878 30.582355 6.103539
2010-04-30 11:58:36 51°16.71 2°53.407 11.6034 3.522878 30.575175 6.068715
2010-04-30 11:58:41 51°16.704 2°53.41 11.6059 3.522772 30.566982 5.824946
2010-04-30 11:58:46 51°16.697 2°53.412 11.6078 3.522772 30.55655 5.546354
2010-04-30 11:58:51 51°16.691 2°53.413 11.6073 3.522772 30.55655 5.546354
2010-04-30 11:58:55 51°16.686 2°53.414 11.6071 3.521085 30.530542 5.33741
2010-04-30 11:59:01 51°16.68 2°53.412 11.6073 3.520031 30.510637 5.198113
2010-04-30 11:59:06 51°16.675 2°53.411 11.6059 3.519609 30.49813 5.093641
2010-04-30 11:59:11 51°16.671 2°53.408 11.6057 3.519187 30.488227 5.058817
2010-04-30 11:59:15 51°16.668 2°53.405 11.5988 3.519398 30.485709 5.023993
2010-04-30 11:59:21 51°16.664 2°53.4 11.5999 3.519187 30.479138 4.989169
2010-04-30 11:59:26 51°16.661 2°53.395 11.5999 3.519187 30.479138 4.989169
2010-04-30 11:59:31 51°16.659 2°53.39 11.5972 3.519292 30.476906 5.023993
2010-04-30 11:59:35 51°16.658 2°53.386 11.5976 3.519187 30.473946 5.023993
2010-04-30 11:59:41 51°16.657 2°53.38 11.5928 3.519503 30.476337 5.023993
2010-04-30 11:59:46 51°16.657 2°53.376 11.5928 3.520557 30.48712 5.023993
2010-04-30 11:59:51 51°16.657 2°53.373 11.5912 3.519819 30.480675 5.023993
2010-04-30 11:59:55 51°16.658 2°53.37 11.588 3.519819 30.480675 5.023993
2010-04-30 12:00:00 51°16.658 2°53.369 11.5891 3.520874 30.492757 4.989169
2010-04-30 12:00:06 51°16.659 2°53.367 11.5893 3.521085 30.495433 4.989169
2010-04-30 12:00:11 51°16.66 2°53.366 11.5888 3.52119 30.498395 5.023993
2010-04-30 12:00:15 51°16.661 2°53.365 11.5873 3.521506 30.503384 5.023993
2010-04-30 12:00:21 51°16.662 2°53.365 11.5857 3.521506 30.503384 5.023993
2010-04-30 12:00:26 51°16.664 2°53.365 11.5823 3.521823 30.507075 5.023993
2010-04-30 12:00:31 51°16.666 2°53.366 11.5805 3.522034 30.511052 5.093641
2010-04-30 12:00:35 51°16.667 2°53.366 11.5787 3.522244 30.515679 5.198113
2010-04-30 12:00:41 51°16.669 2°53.367 11.5796 3.522561 30.520671 5.163289
2010-04-30 12:00:46 51°16.671 2°53.369 11.5787 3.522561 30.520671 5.163289
2010-04-30 12:00:51 51°16.672 2°53.371 11.58 3.522561 30.520671 5.163289
2010-04-30 12:00:55 51°16.673 2°53.372 11.5762 3.522561 30.523272 5.163289
2010-04-30 12:01:01 51°16.676 2°53.375 11.5708 3.522983 30.527979 5.232937
2010-04-30 12:01:06 51°16.677 2°53.377 11.5725 3.522983 30.52928 5.407058
2010-04-30 12:01:11 51°16.679 2°53.38 11.5759 3.523088 30.531595 5.51153
2010-04-30 12:01:15 51°16.68 2°53.382 11.5766 3.522983 30.531882 5.51153
2010-04-30 12:01:21 51°16.683 2°53.386 11.5746 3.523193 30.535862 5.372234
2010-04-30 12:01:26 51°16.684 2°53.389 11.5757 3.523193 30.535862 5.372234
2010-04-30 12:01:31 51°16.686 2°53.393 11.575 3.522983 30.535135 5.407058
2010-04-30 12:01:35 51°16.688 2°53.396 11.5765 3.523194 30.537164 5.581178
2010-04-30 12:01:41 51°16.69 2°53.4 11.5818 3.522983 30.537087 5.616002
2010-04-30 12:01:46 51°16.692 2°53.403 11.582 3.522983 30.539691 5.546354
2010-04-30 12:01:51 51°16.694 2°53.407 11.5858 3.522983 30.539691 5.546354
2010-04-30 12:01:55 51°16.695 2°53.409 11.5869 3.522772 30.537011 5.581178
2010-04-30 12:02:00 51°16.698 2°53.413 11.5901 3.522666 30.535997 5.581178
2010-04-30 12:02:06 51°16.7 2°53.417 11.5897 3.522561 30.535633 5.581178
2010-04-30 12:02:11 51°16.702 2°53.42 11.5886 3.523088 30.540705 5.581178
2010-04-30 12:02:15 51°16.703 2°53.423 11.5906 3.523194 30.541069 5.51153
2010-04-30 12:02:21 51°16.706 2°53.427 11.5929 3.523194 30.541069 5.51153
2010-04-30 12:02:26 51°16.708 2°53.43 11.5936 3.522772 30.53636 5.33741
2010-04-30 12:02:31 51°16.71 2°53.434 11.5974 3.522877 30.534771 5.232937
2010-04-30 12:02:35 51°16.711 2°53.437 11.5981 3.523088 30.534848 5.128465
2010-04-30 12:02:40 51°16.714 2°53.44 11.5991 3.523193 30.533259 5.093641
2010-04-30 12:02:46 51°16.716 2°53.443 11.5995 3.523404 30.533987 5.058817
2010-04-30 12:02:51 51°16.718 2°53.446 11.5952 3.52351 30.535001 4.954345
2010-04-30 12:02:55 51°16.72 2°53.448 11.5894 3.52351 30.535001 4.954345
2010-04-30 12:03:01 51°16.723 2°53.451 11.5875 3.523615 30.534714 4.815049
2010-04-30 12:03:05 51°16.725 2°53.453 11.5849 3.523826 30.535441 4.780225
2010-04-30 12:03:11 51°16.727 2°53.456 11.5836 3.523826 30.533489 4.710577
2010-04-30 12:03:15 51°16.729 2°53.457 11.582 3.524353 30.537909 4.780225
2010-04-30 12:03:21 51°16.732 2°53.46 11.5808 3.524142 30.53393 4.780225
2010-04-30 12:03:26 51°16.734 2°53.462 11.5772 3.524142 30.53393 4.780225
2010-04-30 12:03:31 51°16.737 2°53.463 11.574 3.524142 30.53393 4.849873
2010-04-30 12:03:35 51°16.738 2°53.464 11.5713 3.524142 30.535231 4.954345
2010-04-30 12:03:40 51°16.74 2°53.465 11.566 3.524142 30.538483 5.023993
2010-04-30 12:03:46 51°16.743 2°53.466 11.5664 3.524248 30.541449 5.023993
2010-04-30 12:03:51 51°16.745 2°53.465 11.5627 3.524248 30.541449 5.023993
2010-04-30 12:03:55 51°16.747 2°53.464 11.5622 3.523931 30.540359 5.058817
2010-04-30 12:04:01 51°16.749 2°53.462 11.5606 3.523615 30.537967 5.128465
2010-04-30 12:04:06 51°16.75 2°53.458 11.5583 3.523826 30.542599 5.198113
2010-04-30 12:04:11 51°16.751 2°53.455 11.5578 3.52351 30.541508 5.198113
2010-04-30 12:04:15 51°16.751 2°53.452 11.5576 3.523615 30.545127 5.163289
2010-04-30 12:04:21 51°16.75 2°53.447 11.5508 3.523615 30.545127 5.163289
2010-04-30 12:04:26 51°16.748 2°53.444 11.5509 3.523299 30.544687 5.128465